<?xml version="1.0" encoding="UTF-8" standalone="no" ?>
<gpx xmlns="http://www.topografix.com/GPX/1/1" xmlns:xsi="http://www.w3.org/2001/XMLSchema-instance" xsi:schemaLocation="http://www.topografix.com/GPX/1/1 http://www.topografix.com/GPX/1/1/gpx.xsd" version="1.1" creator="VisuGPX - https://www.visugpx.com">
  <metadata>
    <name>Kirbon Les Michels</name>
    <desc><![CDATA[Rando tranquille dans des forêts de chênes et de pins.  ]]></desc>
  </metadata>
  <trk>
    <name><![CDATA[Kirbon Les Michels_1]]></name>
    <trkseg>
      <trkpt lat="43.41393" lon="5.66666">
        <ele>436.7</ele>
        <time>2013-04-10T07:00:00Z</time>
      </trkpt>
      <trkpt lat="43.41394" lon="5.66666">
        <ele>437.5</ele>
        <time>2013-04-10T07:00:01Z</time>
      </trkpt>
      <trkpt lat="43.41381" lon="5.66682">
        <ele>423.7</ele>
        <time>2013-04-10T07:00:35Z</time>
      </trkpt>
      <trkpt lat="43.41376" lon="5.66692">
        <ele>422.1</ele>
        <time>2013-04-10T07:00:42Z</time>
      </trkpt>
      <trkpt lat="43.41372" lon="5.66702">
        <ele>419.2</ele>
        <time>2013-04-10T07:00:50Z</time>
      </trkpt>
      <trkpt lat="43.41369" lon="5.66713">
        <ele>419</ele>
        <time>2013-04-10T07:00:58Z</time>
      </trkpt>
      <trkpt lat="43.41368" lon="5.66725">
        <ele>420.1</ele>
        <time>2013-04-10T07:01:07Z</time>
      </trkpt>
      <trkpt lat="43.41367" lon="5.66727">
        <ele>420.2</ele>
        <time>2013-04-10T07:01:08Z</time>
      </trkpt>
      <trkpt lat="43.41354" lon="5.66735">
        <ele>424.7</ele>
        <time>2013-04-10T07:01:49Z</time>
      </trkpt>
      <trkpt lat="43.41347" lon="5.66729">
        <ele>421.1</ele>
        <time>2013-04-10T07:01:57Z</time>
      </trkpt>
      <trkpt lat="43.41339" lon="5.66726">
        <ele>419.3</ele>
        <time>2013-04-10T07:02:05Z</time>
      </trkpt>
      <trkpt lat="43.41333" lon="5.66717">
        <ele>419.2</ele>
        <time>2013-04-10T07:02:14Z</time>
      </trkpt>
      <trkpt lat="43.41333" lon="5.66716">
        <ele>418.8</ele>
        <time>2013-04-10T07:02:15Z</time>
      </trkpt>
      <trkpt lat="43.41324" lon="5.66697">
        <ele>417</ele>
        <time>2013-04-10T07:02:29Z</time>
      </trkpt>
      <trkpt lat="43.41318" lon="5.6669">
        <ele>417.2</ele>
        <time>2013-04-10T07:02:35Z</time>
      </trkpt>
      <trkpt lat="43.41311" lon="5.66684">
        <ele>416.5</ele>
        <time>2013-04-10T07:02:41Z</time>
      </trkpt>
      <trkpt lat="43.41304" lon="5.66679">
        <ele>415.7</ele>
        <time>2013-04-10T07:02:47Z</time>
      </trkpt>
      <trkpt lat="43.41296" lon="5.66673">
        <ele>414.7</ele>
        <time>2013-04-10T07:02:54Z</time>
      </trkpt>
      <trkpt lat="43.41289" lon="5.66668">
        <ele>414.2</ele>
        <time>2013-04-10T07:03:00Z</time>
      </trkpt>
      <trkpt lat="43.41282" lon="5.66663">
        <ele>413.8</ele>
        <time>2013-04-10T07:03:06Z</time>
      </trkpt>
      <trkpt lat="43.41275" lon="5.66658">
        <ele>413.7</ele>
        <time>2013-04-10T07:03:12Z</time>
      </trkpt>
      <trkpt lat="43.41268" lon="5.66652">
        <ele>413.3</ele>
        <time>2013-04-10T07:03:19Z</time>
      </trkpt>
      <trkpt lat="43.41267" lon="5.66651">
        <ele>413.1</ele>
        <time>2013-04-10T07:03:20Z</time>
      </trkpt>
      <trkpt lat="43.41253" lon="5.66642">
        <ele>412.7</ele>
        <time>2013-04-10T07:03:32Z</time>
      </trkpt>
      <trkpt lat="43.41245" lon="5.66636">
        <ele>413.1</ele>
        <time>2013-04-10T07:03:39Z</time>
      </trkpt>
      <trkpt lat="43.41239" lon="5.66628">
        <ele>413.2</ele>
        <time>2013-04-10T07:03:47Z</time>
      </trkpt>
      <trkpt lat="43.41239" lon="5.66616">
        <ele>412.2</ele>
        <time>2013-04-10T07:03:56Z</time>
      </trkpt>
      <trkpt lat="43.41242" lon="5.66604">
        <ele>410.1</ele>
        <time>2013-04-10T07:04:05Z</time>
      </trkpt>
      <trkpt lat="43.41244" lon="5.66594">
        <ele>408.6</ele>
        <time>2013-04-10T07:04:12Z</time>
      </trkpt>
      <trkpt lat="43.41245" lon="5.66583">
        <ele>407.7</ele>
        <time>2013-04-10T07:04:19Z</time>
      </trkpt>
      <trkpt lat="43.41248" lon="5.66572">
        <ele>406.7</ele>
        <time>2013-04-10T07:04:26Z</time>
      </trkpt>
      <trkpt lat="43.41248" lon="5.6657">
        <ele>406.6</ele>
        <time>2013-04-10T07:04:27Z</time>
      </trkpt>
      <trkpt lat="43.41253" lon="5.66551">
        <ele>405.1</ele>
        <time>2013-04-10T07:04:39Z</time>
      </trkpt>
      <trkpt lat="43.41256" lon="5.6654">
        <ele>406.1</ele>
        <time>2013-04-10T07:04:45Z</time>
      </trkpt>
      <trkpt lat="43.41261" lon="5.6653">
        <ele>406.7</ele>
        <time>2013-04-10T07:04:51Z</time>
      </trkpt>
      <trkpt lat="43.41265" lon="5.6652">
        <ele>406.8</ele>
        <time>2013-04-10T07:04:57Z</time>
      </trkpt>
      <trkpt lat="43.4127" lon="5.6651">
        <ele>406</ele>
        <time>2013-04-10T07:05:04Z</time>
      </trkpt>
      <trkpt lat="43.41275" lon="5.66501">
        <ele>405</ele>
        <time>2013-04-10T07:05:12Z</time>
      </trkpt>
      <trkpt lat="43.41279" lon="5.66491">
        <ele>405.3</ele>
        <time>2013-04-10T07:05:18Z</time>
      </trkpt>
      <trkpt lat="43.41283" lon="5.6648">
        <ele>405.8</ele>
        <time>2013-04-10T07:05:25Z</time>
      </trkpt>
      <trkpt lat="43.41286" lon="5.66471">
        <ele>405.7</ele>
        <time>2013-04-10T07:05:32Z</time>
      </trkpt>
      <trkpt lat="43.41287" lon="5.66469">
        <ele>405.6</ele>
        <time>2013-04-10T07:05:33Z</time>
      </trkpt>
      <trkpt lat="43.41295" lon="5.66451">
        <ele>405.1</ele>
        <time>2013-04-10T07:05:46Z</time>
      </trkpt>
      <trkpt lat="43.41299" lon="5.66442">
        <ele>405</ele>
        <time>2013-04-10T07:05:52Z</time>
      </trkpt>
      <trkpt lat="43.41304" lon="5.66431">
        <ele>404.6</ele>
        <time>2013-04-10T07:05:59Z</time>
      </trkpt>
      <trkpt lat="43.41308" lon="5.66422">
        <ele>404.5</ele>
        <time>2013-04-10T07:06:05Z</time>
      </trkpt>
      <trkpt lat="43.4131" lon="5.66415">
        <ele>404.2</ele>
        <time>2013-04-10T07:06:09Z</time>
      </trkpt>
      <trkpt lat="43.41313" lon="5.66406">
        <ele>404</ele>
        <time>2013-04-10T07:06:13Z</time>
      </trkpt>
      <trkpt lat="43.41316" lon="5.66394">
        <ele>403.7</ele>
        <time>2013-04-10T07:06:20Z</time>
      </trkpt>
      <trkpt lat="43.41319" lon="5.66383">
        <ele>403.2</ele>
        <time>2013-04-10T07:06:27Z</time>
      </trkpt>
      <trkpt lat="43.41322" lon="5.66372">
        <ele>402.8</ele>
        <time>2013-04-10T07:06:33Z</time>
      </trkpt>
      <trkpt lat="43.41322" lon="5.66371">
        <ele>402.7</ele>
        <time>2013-04-10T07:06:34Z</time>
      </trkpt>
      <trkpt lat="43.41327" lon="5.66351">
        <ele>402.5</ele>
        <time>2013-04-10T07:06:45Z</time>
      </trkpt>
      <trkpt lat="43.4133" lon="5.66341">
        <ele>401.7</ele>
        <time>2013-04-10T07:06:51Z</time>
      </trkpt>
      <trkpt lat="43.41333" lon="5.6633">
        <ele>401.2</ele>
        <time>2013-04-10T07:06:57Z</time>
      </trkpt>
      <trkpt lat="43.41336" lon="5.6632">
        <ele>400.8</ele>
        <time>2013-04-10T07:07:03Z</time>
      </trkpt>
      <trkpt lat="43.41338" lon="5.6631">
        <ele>400.8</ele>
        <time>2013-04-10T07:07:09Z</time>
      </trkpt>
      <trkpt lat="43.41341" lon="5.66299">
        <ele>400.8</ele>
        <time>2013-04-10T07:07:15Z</time>
      </trkpt>
      <trkpt lat="43.41344" lon="5.66289">
        <ele>401.2</ele>
        <time>2013-04-10T07:07:21Z</time>
      </trkpt>
      <trkpt lat="43.41348" lon="5.66278">
        <ele>400.7</ele>
        <time>2013-04-10T07:07:28Z</time>
      </trkpt>
      <trkpt lat="43.41351" lon="5.66268">
        <ele>401.7</ele>
        <time>2013-04-10T07:07:34Z</time>
      </trkpt>
      <trkpt lat="43.41352" lon="5.66266">
        <ele>401.7</ele>
        <time>2013-04-10T07:07:35Z</time>
      </trkpt>
      <trkpt lat="43.41358" lon="5.66247">
        <ele>401.7</ele>
        <time>2013-04-10T07:07:46Z</time>
      </trkpt>
      <trkpt lat="43.4136" lon="5.66237">
        <ele>401.7</ele>
        <time>2013-04-10T07:07:52Z</time>
      </trkpt>
      <trkpt lat="43.41363" lon="5.66225">
        <ele>401.6</ele>
        <time>2013-04-10T07:07:59Z</time>
      </trkpt>
      <trkpt lat="43.41366" lon="5.66215">
        <ele>401.2</ele>
        <time>2013-04-10T07:08:05Z</time>
      </trkpt>
      <trkpt lat="43.41369" lon="5.66205">
        <ele>400.7</ele>
        <time>2013-04-10T07:08:11Z</time>
      </trkpt>
      <trkpt lat="43.41373" lon="5.66196">
        <ele>400.2</ele>
        <time>2013-04-10T07:08:17Z</time>
      </trkpt>
      <trkpt lat="43.41378" lon="5.66187">
        <ele>399.1</ele>
        <time>2013-04-10T07:08:23Z</time>
      </trkpt>
      <trkpt lat="43.41383" lon="5.66179">
        <ele>398.3</ele>
        <time>2013-04-10T07:08:29Z</time>
      </trkpt>
      <trkpt lat="43.41387" lon="5.66169">
        <ele>398</ele>
        <time>2013-04-10T07:08:35Z</time>
      </trkpt>
      <trkpt lat="43.41388" lon="5.66167">
        <ele>397.8</ele>
        <time>2013-04-10T07:08:36Z</time>
      </trkpt>
      <trkpt lat="43.41393" lon="5.66149">
        <ele>396.3</ele>
        <time>2013-04-10T07:08:47Z</time>
      </trkpt>
      <trkpt lat="43.41396" lon="5.66139">
        <ele>394.8</ele>
        <time>2013-04-10T07:08:53Z</time>
      </trkpt>
      <trkpt lat="43.41399" lon="5.66129">
        <ele>394.2</ele>
        <time>2013-04-10T07:08:59Z</time>
      </trkpt>
      <trkpt lat="43.41403" lon="5.6612">
        <ele>393.3</ele>
        <time>2013-04-10T07:09:05Z</time>
      </trkpt>
      <trkpt lat="43.41409" lon="5.66111">
        <ele>393.5</ele>
        <time>2013-04-10T07:09:11Z</time>
      </trkpt>
      <trkpt lat="43.41413" lon="5.66101">
        <ele>393</ele>
        <time>2013-04-10T07:09:17Z</time>
      </trkpt>
      <trkpt lat="43.41416" lon="5.66092">
        <ele>391.2</ele>
        <time>2013-04-10T07:09:23Z</time>
      </trkpt>
      <trkpt lat="43.41422" lon="5.66084">
        <ele>391.2</ele>
        <time>2013-04-10T07:09:29Z</time>
      </trkpt>
      <trkpt lat="43.4143" lon="5.66081">
        <ele>391.2</ele>
        <time>2013-04-10T07:09:35Z</time>
      </trkpt>
      <trkpt lat="43.41436" lon="5.66073">
        <ele>391</ele>
        <time>2013-04-10T07:09:41Z</time>
      </trkpt>
      <trkpt lat="43.41437" lon="5.66071">
        <ele>391</ele>
        <time>2013-04-10T07:09:42Z</time>
      </trkpt>
      <trkpt lat="43.41444" lon="5.66051">
        <ele>389.2</ele>
        <time>2013-04-10T07:09:56Z</time>
      </trkpt>
      <trkpt lat="43.41448" lon="5.6604">
        <ele>389</ele>
        <time>2013-04-10T07:10:03Z</time>
      </trkpt>
      <trkpt lat="43.41452" lon="5.6603">
        <ele>389.1</ele>
        <time>2013-04-10T07:10:09Z</time>
      </trkpt>
      <trkpt lat="43.41456" lon="5.66019">
        <ele>388.1</ele>
        <time>2013-04-10T07:10:16Z</time>
      </trkpt>
      <trkpt lat="43.4146" lon="5.66009">
        <ele>387</ele>
        <time>2013-04-10T07:10:23Z</time>
      </trkpt>
      <trkpt lat="43.41464" lon="5.65999">
        <ele>387.1</ele>
        <time>2013-04-10T07:10:30Z</time>
      </trkpt>
      <trkpt lat="43.41468" lon="5.65988">
        <ele>395.2</ele>
        <time>2013-04-10T07:11:06Z</time>
      </trkpt>
      <trkpt lat="43.41468" lon="5.65988">
        <ele>395.3</ele>
        <time>2013-04-10T07:11:07Z</time>
      </trkpt>
      <trkpt lat="43.41474" lon="5.65978">
        <ele>396.7</ele>
        <time>2013-04-10T07:13:00Z</time>
      </trkpt>
      <trkpt lat="43.41482" lon="5.65959">
        <ele>394.1</ele>
        <time>2013-04-10T07:13:18Z</time>
      </trkpt>
      <trkpt lat="43.41487" lon="5.6595">
        <ele>393.6</ele>
        <time>2013-04-10T07:13:25Z</time>
      </trkpt>
      <trkpt lat="43.41492" lon="5.65941">
        <ele>392.6</ele>
        <time>2013-04-10T07:13:33Z</time>
      </trkpt>
      <trkpt lat="43.41497" lon="5.65932">
        <ele>392.6</ele>
        <time>2013-04-10T07:13:40Z</time>
      </trkpt>
      <trkpt lat="43.41502" lon="5.65922">
        <ele>391.7</ele>
        <time>2013-04-10T07:13:47Z</time>
      </trkpt>
      <trkpt lat="43.41507" lon="5.65912">
        <ele>391.3</ele>
        <time>2013-04-10T07:13:54Z</time>
      </trkpt>
      <trkpt lat="43.4151" lon="5.65901">
        <ele>389</ele>
        <time>2013-04-10T07:14:01Z</time>
      </trkpt>
      <trkpt lat="43.4151" lon="5.659">
        <ele>388.7</ele>
        <time>2013-04-10T07:14:02Z</time>
      </trkpt>
      <trkpt lat="43.41514" lon="5.65878">
        <ele>386.5</ele>
        <time>2013-04-10T07:14:18Z</time>
      </trkpt>
      <trkpt lat="43.41517" lon="5.65867">
        <ele>386.2</ele>
        <time>2013-04-10T07:14:26Z</time>
      </trkpt>
      <trkpt lat="43.4152" lon="5.65857">
        <ele>386.5</ele>
        <time>2013-04-10T07:14:34Z</time>
      </trkpt>
      <trkpt lat="43.41523" lon="5.65845">
        <ele>386.2</ele>
        <time>2013-04-10T07:14:42Z</time>
      </trkpt>
      <trkpt lat="43.41525" lon="5.65835">
        <ele>385.6</ele>
        <time>2013-04-10T07:14:48Z</time>
      </trkpt>
      <trkpt lat="43.41528" lon="5.65824">
        <ele>385.2</ele>
        <time>2013-04-10T07:14:55Z</time>
      </trkpt>
      <trkpt lat="43.41531" lon="5.65813">
        <ele>386.5</ele>
        <time>2013-04-10T07:15:02Z</time>
      </trkpt>
      <trkpt lat="43.41532" lon="5.65811">
        <ele>386.7</ele>
        <time>2013-04-10T07:15:03Z</time>
      </trkpt>
      <trkpt lat="43.41536" lon="5.65791">
        <ele>386.5</ele>
        <time>2013-04-10T07:15:15Z</time>
      </trkpt>
      <trkpt lat="43.41539" lon="5.6578">
        <ele>387.2</ele>
        <time>2013-04-10T07:15:22Z</time>
      </trkpt>
      <trkpt lat="43.41542" lon="5.65768">
        <ele>388.2</ele>
        <time>2013-04-10T07:15:29Z</time>
      </trkpt>
      <trkpt lat="43.41544" lon="5.65756">
        <ele>389.5</ele>
        <time>2013-04-10T07:15:36Z</time>
      </trkpt>
      <trkpt lat="43.41547" lon="5.65745">
        <ele>390.2</ele>
        <time>2013-04-10T07:15:43Z</time>
      </trkpt>
      <trkpt lat="43.41551" lon="5.65734">
        <ele>390.7</ele>
        <time>2013-04-10T07:15:50Z</time>
      </trkpt>
      <trkpt lat="43.41555" lon="5.65724">
        <ele>391</ele>
        <time>2013-04-10T07:15:56Z</time>
      </trkpt>
      <trkpt lat="43.41559" lon="5.65715">
        <ele>391.2</ele>
        <time>2013-04-10T07:16:02Z</time>
      </trkpt>
      <trkpt lat="43.41562" lon="5.65704">
        <ele>391.6</ele>
        <time>2013-04-10T07:16:09Z</time>
      </trkpt>
      <trkpt lat="43.41563" lon="5.65702">
        <ele>391.2</ele>
        <time>2013-04-10T07:16:10Z</time>
      </trkpt>
      <trkpt lat="43.41569" lon="5.65683">
        <ele>390.6</ele>
        <time>2013-04-10T07:16:21Z</time>
      </trkpt>
      <trkpt lat="43.41573" lon="5.65674">
        <ele>390.1</ele>
        <time>2013-04-10T07:16:27Z</time>
      </trkpt>
      <trkpt lat="43.41577" lon="5.65664">
        <ele>388.8</ele>
        <time>2013-04-10T07:16:34Z</time>
      </trkpt>
      <trkpt lat="43.41581" lon="5.65655">
        <ele>389.1</ele>
        <time>2013-04-10T07:16:40Z</time>
      </trkpt>
      <trkpt lat="43.41586" lon="5.65645">
        <ele>389</ele>
        <time>2013-04-10T07:16:47Z</time>
      </trkpt>
      <trkpt lat="43.41591" lon="5.65635">
        <ele>388.5</ele>
        <time>2013-04-10T07:16:54Z</time>
      </trkpt>
      <trkpt lat="43.41595" lon="5.65625">
        <ele>388.2</ele>
        <time>2013-04-10T07:17:02Z</time>
      </trkpt>
      <trkpt lat="43.41598" lon="5.65615">
        <ele>387.1</ele>
        <time>2013-04-10T07:17:09Z</time>
      </trkpt>
      <trkpt lat="43.41602" lon="5.65605">
        <ele>387.1</ele>
        <time>2013-04-10T07:17:15Z</time>
      </trkpt>
      <trkpt lat="43.41603" lon="5.65604">
        <ele>387.2</ele>
        <time>2013-04-10T07:17:16Z</time>
      </trkpt>
      <trkpt lat="43.41608" lon="5.65583">
        <ele>386.6</ele>
        <time>2013-04-10T07:17:29Z</time>
      </trkpt>
      <trkpt lat="43.41611" lon="5.65572">
        <ele>385.7</ele>
        <time>2013-04-10T07:17:36Z</time>
      </trkpt>
      <trkpt lat="43.41614" lon="5.65561">
        <ele>384.6</ele>
        <time>2013-04-10T07:17:43Z</time>
      </trkpt>
      <trkpt lat="43.41617" lon="5.6555">
        <ele>383.7</ele>
        <time>2013-04-10T07:17:50Z</time>
      </trkpt>
      <trkpt lat="43.41621" lon="5.6554">
        <ele>384.6</ele>
        <time>2013-04-10T07:17:56Z</time>
      </trkpt>
      <trkpt lat="43.41626" lon="5.65531">
        <ele>383.7</ele>
        <time>2013-04-10T07:18:02Z</time>
      </trkpt>
      <trkpt lat="43.41632" lon="5.65522">
        <ele>383.7</ele>
        <time>2013-04-10T07:18:09Z</time>
      </trkpt>
      <trkpt lat="43.41638" lon="5.65514">
        <ele>383.5</ele>
        <time>2013-04-10T07:18:16Z</time>
      </trkpt>
      <trkpt lat="43.41639" lon="5.65513">
        <ele>383.7</ele>
        <time>2013-04-10T07:18:17Z</time>
      </trkpt>
      <trkpt lat="43.41651" lon="5.65499">
        <ele>382.5</ele>
        <time>2013-04-10T07:18:30Z</time>
      </trkpt>
      <trkpt lat="43.41658" lon="5.65493">
        <ele>383</ele>
        <time>2013-04-10T07:18:36Z</time>
      </trkpt>
      <trkpt lat="43.41665" lon="5.65487">
        <ele>383.1</ele>
        <time>2013-04-10T07:18:42Z</time>
      </trkpt>
      <trkpt lat="43.41672" lon="5.65483">
        <ele>382.5</ele>
        <time>2013-04-10T07:18:48Z</time>
      </trkpt>
      <trkpt lat="43.41679" lon="5.65477">
        <ele>381.3</ele>
        <time>2013-04-10T07:18:55Z</time>
      </trkpt>
      <trkpt lat="43.41687" lon="5.65471">
        <ele>380.2</ele>
        <time>2013-04-10T07:19:02Z</time>
      </trkpt>
      <trkpt lat="43.41695" lon="5.65465">
        <ele>379</ele>
        <time>2013-04-10T07:19:09Z</time>
      </trkpt>
      <trkpt lat="43.41702" lon="5.6546">
        <ele>377.8</ele>
        <time>2013-04-10T07:19:15Z</time>
      </trkpt>
      <trkpt lat="43.41709" lon="5.65454">
        <ele>377.2</ele>
        <time>2013-04-10T07:19:22Z</time>
      </trkpt>
      <trkpt lat="43.4171" lon="5.65454">
        <ele>377.1</ele>
        <time>2013-04-10T07:19:23Z</time>
      </trkpt>
      <trkpt lat="43.41725" lon="5.65447">
        <ele>376.7</ele>
        <time>2013-04-10T07:19:35Z</time>
      </trkpt>
      <trkpt lat="43.41732" lon="5.65444">
        <ele>377</ele>
        <time>2013-04-10T07:19:41Z</time>
      </trkpt>
      <trkpt lat="43.4174" lon="5.65441">
        <ele>376.8</ele>
        <time>2013-04-10T07:19:48Z</time>
      </trkpt>
      <trkpt lat="43.41748" lon="5.65434">
        <ele>377</ele>
        <time>2013-04-10T07:19:55Z</time>
      </trkpt>
      <trkpt lat="43.41751" lon="5.65423">
        <ele>375</ele>
        <time>2013-04-10T07:20:03Z</time>
      </trkpt>
      <trkpt lat="43.41753" lon="5.65412">
        <ele>373.8</ele>
        <time>2013-04-10T07:20:10Z</time>
      </trkpt>
      <trkpt lat="43.41756" lon="5.65402">
        <ele>373.7</ele>
        <time>2013-04-10T07:20:17Z</time>
      </trkpt>
      <trkpt lat="43.41759" lon="5.6539">
        <ele>373.6</ele>
        <time>2013-04-10T07:20:24Z</time>
      </trkpt>
      <trkpt lat="43.41759" lon="5.65388">
        <ele>373.6</ele>
        <time>2013-04-10T07:20:25Z</time>
      </trkpt>
      <trkpt lat="43.41761" lon="5.65367">
        <ele>373</ele>
        <time>2013-04-10T07:20:37Z</time>
      </trkpt>
      <trkpt lat="43.41763" lon="5.65356">
        <ele>372.3</ele>
        <time>2013-04-10T07:20:44Z</time>
      </trkpt>
      <trkpt lat="43.41766" lon="5.65346">
        <ele>371.8</ele>
        <time>2013-04-10T07:20:51Z</time>
      </trkpt>
      <trkpt lat="43.4177" lon="5.65336">
        <ele>372.6</ele>
        <time>2013-04-10T07:20:57Z</time>
      </trkpt>
      <trkpt lat="43.41775" lon="5.65326">
        <ele>373.1</ele>
        <time>2013-04-10T07:21:03Z</time>
      </trkpt>
      <trkpt lat="43.41779" lon="5.65315">
        <ele>372.5</ele>
        <time>2013-04-10T07:21:10Z</time>
      </trkpt>
      <trkpt lat="43.41784" lon="5.65305">
        <ele>371.2</ele>
        <time>2013-04-10T07:21:17Z</time>
      </trkpt>
      <trkpt lat="43.41788" lon="5.65295">
        <ele>369.6</ele>
        <time>2013-04-10T07:21:24Z</time>
      </trkpt>
      <trkpt lat="43.41791" lon="5.65284">
        <ele>369.6</ele>
        <time>2013-04-10T07:21:31Z</time>
      </trkpt>
      <trkpt lat="43.41792" lon="5.65282">
        <ele>369.5</ele>
        <time>2013-04-10T07:21:32Z</time>
      </trkpt>
      <trkpt lat="43.41797" lon="5.65263">
        <ele>369.2</ele>
        <time>2013-04-10T07:21:43Z</time>
      </trkpt>
      <trkpt lat="43.41801" lon="5.65253">
        <ele>368.3</ele>
        <time>2013-04-10T07:21:50Z</time>
      </trkpt>
      <trkpt lat="43.41806" lon="5.65242">
        <ele>368.8</ele>
        <time>2013-04-10T07:21:56Z</time>
      </trkpt>
      <trkpt lat="43.4181" lon="5.65232">
        <ele>368.5</ele>
        <time>2013-04-10T07:22:02Z</time>
      </trkpt>
      <trkpt lat="43.41813" lon="5.6522">
        <ele>367.2</ele>
        <time>2013-04-10T07:22:09Z</time>
      </trkpt>
      <trkpt lat="43.41816" lon="5.65209">
        <ele>366.5</ele>
        <time>2013-04-10T07:22:16Z</time>
      </trkpt>
      <trkpt lat="43.41819" lon="5.65198">
        <ele>366.1</ele>
        <time>2013-04-10T07:22:23Z</time>
      </trkpt>
      <trkpt lat="43.41822" lon="5.65187">
        <ele>362.2</ele>
        <time>2013-04-10T07:22:31Z</time>
      </trkpt>
      <trkpt lat="43.41826" lon="5.65177">
        <ele>361.3</ele>
        <time>2013-04-10T07:22:37Z</time>
      </trkpt>
      <trkpt lat="43.41826" lon="5.65175">
        <ele>361.2</ele>
        <time>2013-04-10T07:22:38Z</time>
      </trkpt>
      <trkpt lat="43.41835" lon="5.65158">
        <ele>360.1</ele>
        <time>2013-04-10T07:22:49Z</time>
      </trkpt>
      <trkpt lat="43.4184" lon="5.6515">
        <ele>359.7</ele>
        <time>2013-04-10T07:22:55Z</time>
      </trkpt>
      <trkpt lat="43.41845" lon="5.65141">
        <ele>360.7</ele>
        <time>2013-04-10T07:23:01Z</time>
      </trkpt>
      <trkpt lat="43.4185" lon="5.65132">
        <ele>361</ele>
        <time>2013-04-10T07:23:07Z</time>
      </trkpt>
      <trkpt lat="43.41856" lon="5.65124">
        <ele>361.3</ele>
        <time>2013-04-10T07:23:13Z</time>
      </trkpt>
      <trkpt lat="43.41863" lon="5.65116">
        <ele>361.8</ele>
        <time>2013-04-10T07:23:19Z</time>
      </trkpt>
      <trkpt lat="43.41869" lon="5.65109">
        <ele>361.7</ele>
        <time>2013-04-10T07:23:25Z</time>
      </trkpt>
      <trkpt lat="43.41872" lon="5.65098">
        <ele>361</ele>
        <time>2013-04-10T07:23:32Z</time>
      </trkpt>
      <trkpt lat="43.41867" lon="5.65089">
        <ele>360.2</ele>
        <time>2013-04-10T07:23:39Z</time>
      </trkpt>
      <trkpt lat="43.41866" lon="5.65089">
        <ele>360.1</ele>
        <time>2013-04-10T07:23:40Z</time>
      </trkpt>
      <trkpt lat="43.41852" lon="5.65082">
        <ele>361.2</ele>
        <time>2013-04-10T07:23:52Z</time>
      </trkpt>
      <trkpt lat="43.41844" lon="5.6508">
        <ele>361.2</ele>
        <time>2013-04-10T07:23:58Z</time>
      </trkpt>
      <trkpt lat="43.41837" lon="5.65075">
        <ele>360.7</ele>
        <time>2013-04-10T07:24:04Z</time>
      </trkpt>
      <trkpt lat="43.41834" lon="5.65063">
        <ele>359.2</ele>
        <time>2013-04-10T07:24:12Z</time>
      </trkpt>
      <trkpt lat="43.41837" lon="5.65052">
        <ele>358</ele>
        <time>2013-04-10T07:24:20Z</time>
      </trkpt>
      <trkpt lat="43.41842" lon="5.65044">
        <ele>357</ele>
        <time>2013-04-10T07:24:27Z</time>
      </trkpt>
      <trkpt lat="43.41849" lon="5.65037">
        <ele>355.7</ele>
        <time>2013-04-10T07:24:34Z</time>
      </trkpt>
      <trkpt lat="43.41857" lon="5.65034">
        <ele>353.8</ele>
        <time>2013-04-10T07:24:42Z</time>
      </trkpt>
      <trkpt lat="43.41858" lon="5.65034">
        <ele>353.7</ele>
        <time>2013-04-10T07:24:43Z</time>
      </trkpt>
      <trkpt lat="43.41874" lon="5.65032">
        <ele>350.7</ele>
        <time>2013-04-10T07:24:56Z</time>
      </trkpt>
      <trkpt lat="43.41883" lon="5.65033">
        <ele>351.2</ele>
        <time>2013-04-10T07:25:02Z</time>
      </trkpt>
      <trkpt lat="43.4189" lon="5.65036">
        <ele>350.8</ele>
        <time>2013-04-10T07:25:08Z</time>
      </trkpt>
      <trkpt lat="43.41899" lon="5.65038">
        <ele>350.5</ele>
        <time>2013-04-10T07:25:15Z</time>
      </trkpt>
      <trkpt lat="43.41906" lon="5.65043">
        <ele>349.8</ele>
        <time>2013-04-10T07:25:22Z</time>
      </trkpt>
      <trkpt lat="43.41914" lon="5.65048">
        <ele>350.2</ele>
        <time>2013-04-10T07:25:28Z</time>
      </trkpt>
      <trkpt lat="43.41922" lon="5.65051">
        <ele>350.2</ele>
        <time>2013-04-10T07:25:35Z</time>
      </trkpt>
      <trkpt lat="43.4193" lon="5.65054">
        <ele>349.3</ele>
        <time>2013-04-10T07:25:41Z</time>
      </trkpt>
      <trkpt lat="43.41936" lon="5.65062">
        <ele>348.7</ele>
        <time>2013-04-10T07:25:47Z</time>
      </trkpt>
      <trkpt lat="43.41937" lon="5.65064">
        <ele>348.7</ele>
        <time>2013-04-10T07:25:48Z</time>
      </trkpt>
      <trkpt lat="43.41949" lon="5.65076">
        <ele>347.7</ele>
        <time>2013-04-10T07:26:01Z</time>
      </trkpt>
      <trkpt lat="43.41956" lon="5.6507">
        <ele>347.7</ele>
        <time>2013-04-10T07:26:09Z</time>
      </trkpt>
      <trkpt lat="43.41962" lon="5.65062">
        <ele>347.7</ele>
        <time>2013-04-10T07:26:16Z</time>
      </trkpt>
      <trkpt lat="43.41966" lon="5.65052">
        <ele>346.3</ele>
        <time>2013-04-10T07:26:23Z</time>
      </trkpt>
      <trkpt lat="43.41967" lon="5.6504">
        <ele>344.2</ele>
        <time>2013-04-10T07:26:30Z</time>
      </trkpt>
      <trkpt lat="43.4197" lon="5.65029">
        <ele>343.5</ele>
        <time>2013-04-10T07:26:37Z</time>
      </trkpt>
      <trkpt lat="43.41974" lon="5.65018">
        <ele>342.6</ele>
        <time>2013-04-10T07:26:44Z</time>
      </trkpt>
      <trkpt lat="43.41978" lon="5.65008">
        <ele>342.5</ele>
        <time>2013-04-10T07:26:50Z</time>
      </trkpt>
      <trkpt lat="43.41979" lon="5.65007">
        <ele>342.3</ele>
        <time>2013-04-10T07:26:51Z</time>
      </trkpt>
      <trkpt lat="43.4199" lon="5.64991">
        <ele>340.5</ele>
        <time>2013-04-10T07:27:04Z</time>
      </trkpt>
      <trkpt lat="43.41997" lon="5.64984">
        <ele>339.3</ele>
        <time>2013-04-10T07:27:11Z</time>
      </trkpt>
      <trkpt lat="43.42004" lon="5.6498">
        <ele>336.7</ele>
        <time>2013-04-10T07:27:18Z</time>
      </trkpt>
      <trkpt lat="43.42012" lon="5.64976">
        <ele>335</ele>
        <time>2013-04-10T07:27:25Z</time>
      </trkpt>
      <trkpt lat="43.4202" lon="5.64972">
        <ele>333</ele>
        <time>2013-04-10T07:27:32Z</time>
      </trkpt>
      <trkpt lat="43.42028" lon="5.64969">
        <ele>333.3</ele>
        <time>2013-04-10T07:27:38Z</time>
      </trkpt>
      <trkpt lat="43.42036" lon="5.64968">
        <ele>334.3</ele>
        <time>2013-04-10T07:27:44Z</time>
      </trkpt>
      <trkpt lat="43.42045" lon="5.64966">
        <ele>335.1</ele>
        <time>2013-04-10T07:27:52Z</time>
      </trkpt>
      <trkpt lat="43.42045" lon="5.64965">
        <ele>335.2</ele>
        <time>2013-04-10T07:27:53Z</time>
      </trkpt>
      <trkpt lat="43.42056" lon="5.64949">
        <ele>338.7</ele>
        <time>2013-04-10T07:28:50Z</time>
      </trkpt>
      <trkpt lat="43.42053" lon="5.64939">
        <ele>339</ele>
        <time>2013-04-10T07:28:58Z</time>
      </trkpt>
      <trkpt lat="43.42053" lon="5.64937">
        <ele>339.2</ele>
        <time>2013-04-10T07:28:59Z</time>
      </trkpt>
      <trkpt lat="43.42046" lon="5.64917">
        <ele>341</ele>
        <time>2013-04-10T07:29:13Z</time>
      </trkpt>
      <trkpt lat="43.4204" lon="5.64908">
        <ele>341.2</ele>
        <time>2013-04-10T07:29:20Z</time>
      </trkpt>
      <trkpt lat="43.42036" lon="5.64897">
        <ele>340.6</ele>
        <time>2013-04-10T07:29:27Z</time>
      </trkpt>
      <trkpt lat="43.4203" lon="5.64888">
        <ele>340.8</ele>
        <time>2013-04-10T07:29:34Z</time>
      </trkpt>
      <trkpt lat="43.42024" lon="5.64879">
        <ele>341.2</ele>
        <time>2013-04-10T07:29:41Z</time>
      </trkpt>
      <trkpt lat="43.42019" lon="5.64871">
        <ele>342.8</ele>
        <time>2013-04-10T07:29:48Z</time>
      </trkpt>
      <trkpt lat="43.42015" lon="5.6486">
        <ele>344.7</ele>
        <time>2013-04-10T07:29:56Z</time>
      </trkpt>
      <trkpt lat="43.42011" lon="5.6485">
        <ele>346.7</ele>
        <time>2013-04-10T07:30:04Z</time>
      </trkpt>
      <trkpt lat="43.42011" lon="5.64849">
        <ele>346.8</ele>
        <time>2013-04-10T07:30:05Z</time>
      </trkpt>
      <trkpt lat="43.4201" lon="5.64828">
        <ele>346.2</ele>
        <time>2013-04-10T07:30:20Z</time>
      </trkpt>
      <trkpt lat="43.42011" lon="5.64817">
        <ele>346.2</ele>
        <time>2013-04-10T07:30:27Z</time>
      </trkpt>
      <trkpt lat="43.42012" lon="5.64805">
        <ele>347.5</ele>
        <time>2013-04-10T07:30:34Z</time>
      </trkpt>
      <trkpt lat="43.42012" lon="5.64794">
        <ele>348.2</ele>
        <time>2013-04-10T07:30:41Z</time>
      </trkpt>
      <trkpt lat="43.42012" lon="5.64782">
        <ele>349.2</ele>
        <time>2013-04-10T07:30:48Z</time>
      </trkpt>
      <trkpt lat="43.42012" lon="5.6477">
        <ele>349.6</ele>
        <time>2013-04-10T07:30:56Z</time>
      </trkpt>
      <trkpt lat="43.42012" lon="5.64758">
        <ele>349.8</ele>
        <time>2013-04-10T07:31:04Z</time>
      </trkpt>
      <trkpt lat="43.42011" lon="5.64746">
        <ele>352</ele>
        <time>2013-04-10T07:31:11Z</time>
      </trkpt>
      <trkpt lat="43.42011" lon="5.64745">
        <ele>351.8</ele>
        <time>2013-04-10T07:31:12Z</time>
      </trkpt>
      <trkpt lat="43.42005" lon="5.64724">
        <ele>352.1</ele>
        <time>2013-04-10T07:31:26Z</time>
      </trkpt>
      <trkpt lat="43.42001" lon="5.64715">
        <ele>353.6</ele>
        <time>2013-04-10T07:31:32Z</time>
      </trkpt>
      <trkpt lat="43.41997" lon="5.64704">
        <ele>353.7</ele>
        <time>2013-04-10T07:31:40Z</time>
      </trkpt>
      <trkpt lat="43.41994" lon="5.64692">
        <ele>353.1</ele>
        <time>2013-04-10T07:31:48Z</time>
      </trkpt>
      <trkpt lat="43.41991" lon="5.64681">
        <ele>352</ele>
        <time>2013-04-10T07:31:56Z</time>
      </trkpt>
      <trkpt lat="43.41989" lon="5.64671">
        <ele>352.2</ele>
        <time>2013-04-10T07:32:03Z</time>
      </trkpt>
      <trkpt lat="43.41986" lon="5.6466">
        <ele>354.8</ele>
        <time>2013-04-10T07:32:10Z</time>
      </trkpt>
      <trkpt lat="43.41982" lon="5.64649">
        <ele>356.1</ele>
        <time>2013-04-10T07:32:20Z</time>
      </trkpt>
      <trkpt lat="43.41982" lon="5.64648">
        <ele>356.1</ele>
        <time>2013-04-10T07:32:21Z</time>
      </trkpt>
      <trkpt lat="43.41971" lon="5.64632">
        <ele>357.8</ele>
        <time>2013-04-10T07:32:36Z</time>
      </trkpt>
      <trkpt lat="43.41966" lon="5.64624">
        <ele>358.7</ele>
        <time>2013-04-10T07:32:44Z</time>
      </trkpt>
      <trkpt lat="43.41961" lon="5.64615">
        <ele>359.8</ele>
        <time>2013-04-10T07:32:52Z</time>
      </trkpt>
      <trkpt lat="43.41956" lon="5.64606">
        <ele>360.8</ele>
        <time>2013-04-10T07:33:00Z</time>
      </trkpt>
      <trkpt lat="43.41951" lon="5.64596">
        <ele>362.2</ele>
        <time>2013-04-10T07:33:08Z</time>
      </trkpt>
      <trkpt lat="43.41946" lon="5.64588">
        <ele>363.3</ele>
        <time>2013-04-10T07:33:15Z</time>
      </trkpt>
      <trkpt lat="43.41941" lon="5.64578">
        <ele>363.2</ele>
        <time>2013-04-10T07:33:24Z</time>
      </trkpt>
      <trkpt lat="43.4194" lon="5.64577">
        <ele>363.2</ele>
        <time>2013-04-10T07:33:25Z</time>
      </trkpt>
      <trkpt lat="43.41935" lon="5.64556">
        <ele>364</ele>
        <time>2013-04-10T07:33:42Z</time>
      </trkpt>
      <trkpt lat="43.41933" lon="5.64544">
        <ele>364.3</ele>
        <time>2013-04-10T07:33:50Z</time>
      </trkpt>
      <trkpt lat="43.4193" lon="5.64533">
        <ele>363.6</ele>
        <time>2013-04-10T07:33:58Z</time>
      </trkpt>
      <trkpt lat="43.41928" lon="5.64521">
        <ele>366.1</ele>
        <time>2013-04-10T07:34:06Z</time>
      </trkpt>
      <trkpt lat="43.41925" lon="5.6451">
        <ele>367</ele>
        <time>2013-04-10T07:34:14Z</time>
      </trkpt>
      <trkpt lat="43.41922" lon="5.64499">
        <ele>367.8</ele>
        <time>2013-04-10T07:34:22Z</time>
      </trkpt>
      <trkpt lat="43.41918" lon="5.64489">
        <ele>367.7</ele>
        <time>2013-04-10T07:34:30Z</time>
      </trkpt>
      <trkpt lat="43.41917" lon="5.64488">
        <ele>367.7</ele>
        <time>2013-04-10T07:34:31Z</time>
      </trkpt>
      <trkpt lat="43.41911" lon="5.64469">
        <ele>370.2</ele>
        <time>2013-04-10T07:34:44Z</time>
      </trkpt>
      <trkpt lat="43.41907" lon="5.64459">
        <ele>372.3</ele>
        <time>2013-04-10T07:34:52Z</time>
      </trkpt>
      <trkpt lat="43.41902" lon="5.6445">
        <ele>374.8</ele>
        <time>2013-04-10T07:34:59Z</time>
      </trkpt>
      <trkpt lat="43.41897" lon="5.64442">
        <ele>376.1</ele>
        <time>2013-04-10T07:35:06Z</time>
      </trkpt>
      <trkpt lat="43.41892" lon="5.64433">
        <ele>377.3</ele>
        <time>2013-04-10T07:35:13Z</time>
      </trkpt>
      <trkpt lat="43.41888" lon="5.64424">
        <ele>378.8</ele>
        <time>2013-04-10T07:35:20Z</time>
      </trkpt>
      <trkpt lat="43.41885" lon="5.64413">
        <ele>379.2</ele>
        <time>2013-04-10T07:35:28Z</time>
      </trkpt>
      <trkpt lat="43.41882" lon="5.64402">
        <ele>379</ele>
        <time>2013-04-10T07:35:36Z</time>
      </trkpt>
      <trkpt lat="43.41882" lon="5.64401">
        <ele>378.7</ele>
        <time>2013-04-10T07:35:37Z</time>
      </trkpt>
      <trkpt lat="43.41877" lon="5.6438">
        <ele>378.2</ele>
        <time>2013-04-10T07:35:52Z</time>
      </trkpt>
      <trkpt lat="43.41876" lon="5.64368">
        <ele>376.7</ele>
        <time>2013-04-10T07:36:00Z</time>
      </trkpt>
      <trkpt lat="43.41874" lon="5.64357">
        <ele>377.2</ele>
        <time>2013-04-10T07:36:08Z</time>
      </trkpt>
      <trkpt lat="43.41873" lon="5.64346">
        <ele>377.2</ele>
        <time>2013-04-10T07:36:16Z</time>
      </trkpt>
      <trkpt lat="43.41872" lon="5.64335">
        <ele>377.7</ele>
        <time>2013-04-10T07:36:24Z</time>
      </trkpt>
      <trkpt lat="43.4187" lon="5.64324">
        <ele>379.2</ele>
        <time>2013-04-10T07:36:31Z</time>
      </trkpt>
      <trkpt lat="43.41867" lon="5.64312">
        <ele>380.2</ele>
        <time>2013-04-10T07:36:39Z</time>
      </trkpt>
      <trkpt lat="43.41866" lon="5.64311">
        <ele>380.8</ele>
        <time>2013-04-10T07:36:40Z</time>
      </trkpt>
      <trkpt lat="43.41865" lon="5.64289">
        <ele>383.5</ele>
        <time>2013-04-10T07:36:54Z</time>
      </trkpt>
      <trkpt lat="43.41864" lon="5.64278">
        <ele>384.8</ele>
        <time>2013-04-10T07:37:01Z</time>
      </trkpt>
      <trkpt lat="43.41862" lon="5.64266">
        <ele>385</ele>
        <time>2013-04-10T07:37:08Z</time>
      </trkpt>
      <trkpt lat="43.4186" lon="5.64255">
        <ele>385.8</ele>
        <time>2013-04-10T07:37:15Z</time>
      </trkpt>
      <trkpt lat="43.41857" lon="5.64244">
        <ele>386.7</ele>
        <time>2013-04-10T07:37:23Z</time>
      </trkpt>
      <trkpt lat="43.41855" lon="5.64232">
        <ele>386.7</ele>
        <time>2013-04-10T07:37:32Z</time>
      </trkpt>
      <trkpt lat="43.41858" lon="5.64221">
        <ele>388.2</ele>
        <time>2013-04-10T07:37:41Z</time>
      </trkpt>
      <trkpt lat="43.41859" lon="5.6422">
        <ele>388.1</ele>
        <time>2013-04-10T07:37:42Z</time>
      </trkpt>
      <trkpt lat="43.4187" lon="5.64206">
        <ele>390.6</ele>
        <time>2013-04-10T07:37:57Z</time>
      </trkpt>
      <trkpt lat="43.41878" lon="5.64201">
        <ele>392.2</ele>
        <time>2013-04-10T07:38:05Z</time>
      </trkpt>
      <trkpt lat="43.41882" lon="5.6419">
        <ele>393.8</ele>
        <time>2013-04-10T07:38:23Z</time>
      </trkpt>
      <trkpt lat="43.41884" lon="5.64179">
        <ele>394.5</ele>
        <time>2013-04-10T07:38:31Z</time>
      </trkpt>
      <trkpt lat="43.41885" lon="5.64167">
        <ele>395.7</ele>
        <time>2013-04-10T07:38:40Z</time>
      </trkpt>
      <trkpt lat="43.41887" lon="5.64156">
        <ele>396.7</ele>
        <time>2013-04-10T07:38:49Z</time>
      </trkpt>
      <trkpt lat="43.41888" lon="5.64154">
        <ele>397</ele>
        <time>2013-04-10T07:38:50Z</time>
      </trkpt>
      <trkpt lat="43.419" lon="5.64142">
        <ele>398.5</ele>
        <time>2013-04-10T07:39:03Z</time>
      </trkpt>
      <trkpt lat="43.41908" lon="5.64139">
        <ele>399.3</ele>
        <time>2013-04-10T07:39:10Z</time>
      </trkpt>
      <trkpt lat="43.41916" lon="5.64135">
        <ele>400.8</ele>
        <time>2013-04-10T07:39:17Z</time>
      </trkpt>
      <trkpt lat="43.41923" lon="5.64128">
        <ele>402.1</ele>
        <time>2013-04-10T07:39:24Z</time>
      </trkpt>
      <trkpt lat="43.41929" lon="5.6412">
        <ele>402.2</ele>
        <time>2013-04-10T07:39:33Z</time>
      </trkpt>
      <trkpt lat="43.41935" lon="5.64112">
        <ele>402.6</ele>
        <time>2013-04-10T07:39:41Z</time>
      </trkpt>
      <trkpt lat="43.4194" lon="5.64103">
        <ele>402.5</ele>
        <time>2013-04-10T07:39:48Z</time>
      </trkpt>
      <trkpt lat="43.41947" lon="5.64095">
        <ele>403</ele>
        <time>2013-04-10T07:39:56Z</time>
      </trkpt>
      <trkpt lat="43.41947" lon="5.64094">
        <ele>403</ele>
        <time>2013-04-10T07:39:57Z</time>
      </trkpt>
      <trkpt lat="43.41959" lon="5.6408">
        <ele>403.5</ele>
        <time>2013-04-10T07:40:12Z</time>
      </trkpt>
      <trkpt lat="43.41962" lon="5.64068">
        <ele>409.5</ele>
        <time>2013-04-10T07:46:27Z</time>
      </trkpt>
      <trkpt lat="43.41962" lon="5.64068">
        <ele>409.3</ele>
        <time>2013-04-10T07:46:28Z</time>
      </trkpt>
      <trkpt lat="43.41973" lon="5.64051">
        <ele>408.7</ele>
        <time>2013-04-10T07:46:47Z</time>
      </trkpt>
      <trkpt lat="43.41979" lon="5.64043">
        <ele>406.7</ele>
        <time>2013-04-10T07:46:54Z</time>
      </trkpt>
      <trkpt lat="43.41983" lon="5.64034">
        <ele>404.7</ele>
        <time>2013-04-10T07:47:02Z</time>
      </trkpt>
      <trkpt lat="43.41988" lon="5.64025">
        <ele>402.2</ele>
        <time>2013-04-10T07:47:09Z</time>
      </trkpt>
      <trkpt lat="43.41992" lon="5.64014">
        <ele>399.6</ele>
        <time>2013-04-10T07:47:16Z</time>
      </trkpt>
      <trkpt lat="43.41997" lon="5.64005">
        <ele>397.2</ele>
        <time>2013-04-10T07:47:24Z</time>
      </trkpt>
      <trkpt lat="43.42002" lon="5.63995">
        <ele>396.5</ele>
        <time>2013-04-10T07:47:32Z</time>
      </trkpt>
      <trkpt lat="43.42002" lon="5.63993">
        <ele>397.1</ele>
        <time>2013-04-10T07:47:33Z</time>
      </trkpt>
      <trkpt lat="43.42003" lon="5.63972">
        <ele>396</ele>
        <time>2013-04-10T07:47:46Z</time>
      </trkpt>
      <trkpt lat="43.41998" lon="5.63962">
        <ele>396.1</ele>
        <time>2013-04-10T07:47:53Z</time>
      </trkpt>
      <trkpt lat="43.41993" lon="5.63953">
        <ele>396.5</ele>
        <time>2013-04-10T07:48:00Z</time>
      </trkpt>
      <trkpt lat="43.41988" lon="5.63944">
        <ele>395.8</ele>
        <time>2013-04-10T07:48:07Z</time>
      </trkpt>
      <trkpt lat="43.41983" lon="5.63935">
        <ele>396</ele>
        <time>2013-04-10T07:48:13Z</time>
      </trkpt>
      <trkpt lat="43.41978" lon="5.63926">
        <ele>395.2</ele>
        <time>2013-04-10T07:48:20Z</time>
      </trkpt>
      <trkpt lat="43.41973" lon="5.63917">
        <ele>393.7</ele>
        <time>2013-04-10T07:48:29Z</time>
      </trkpt>
      <trkpt lat="43.41969" lon="5.63907">
        <ele>393.1</ele>
        <time>2013-04-10T07:48:38Z</time>
      </trkpt>
      <trkpt lat="43.41968" lon="5.63906">
        <ele>393.1</ele>
        <time>2013-04-10T07:48:39Z</time>
      </trkpt>
      <trkpt lat="43.41958" lon="5.6389">
        <ele>392.2</ele>
        <time>2013-04-10T07:48:55Z</time>
      </trkpt>
      <trkpt lat="43.41952" lon="5.63881">
        <ele>391.1</ele>
        <time>2013-04-10T07:49:02Z</time>
      </trkpt>
      <trkpt lat="43.41946" lon="5.63874">
        <ele>390.3</ele>
        <time>2013-04-10T07:49:07Z</time>
      </trkpt>
      <trkpt lat="43.41941" lon="5.63865">
        <ele>390.2</ele>
        <time>2013-04-10T07:49:14Z</time>
      </trkpt>
      <trkpt lat="43.41937" lon="5.63855">
        <ele>391.1</ele>
        <time>2013-04-10T07:49:20Z</time>
      </trkpt>
      <trkpt lat="43.41935" lon="5.63844">
        <ele>391</ele>
        <time>2013-04-10T07:49:27Z</time>
      </trkpt>
      <trkpt lat="43.41932" lon="5.63833">
        <ele>392.2</ele>
        <time>2013-04-10T07:49:34Z</time>
      </trkpt>
      <trkpt lat="43.41928" lon="5.63823">
        <ele>392.3</ele>
        <time>2013-04-10T07:49:41Z</time>
      </trkpt>
      <trkpt lat="43.41927" lon="5.63822">
        <ele>392.1</ele>
        <time>2013-04-10T07:49:42Z</time>
      </trkpt>
      <trkpt lat="43.41921" lon="5.63802">
        <ele>393.8</ele>
        <time>2013-04-10T07:49:52Z</time>
      </trkpt>
      <trkpt lat="43.41917" lon="5.63792">
        <ele>393.7</ele>
        <time>2013-04-10T07:49:58Z</time>
      </trkpt>
      <trkpt lat="43.41914" lon="5.63781">
        <ele>393.7</ele>
        <time>2013-04-10T07:50:06Z</time>
      </trkpt>
      <trkpt lat="43.41911" lon="5.6377">
        <ele>392.7</ele>
        <time>2013-04-10T07:50:14Z</time>
      </trkpt>
      <trkpt lat="43.41909" lon="5.63758">
        <ele>391.7</ele>
        <time>2013-04-10T07:50:23Z</time>
      </trkpt>
      <trkpt lat="43.41909" lon="5.63746">
        <ele>391.2</ele>
        <time>2013-04-10T07:50:31Z</time>
      </trkpt>
      <trkpt lat="43.41908" lon="5.63734">
        <ele>394.2</ele>
        <time>2013-04-10T07:50:37Z</time>
      </trkpt>
      <trkpt lat="43.41908" lon="5.63723">
        <ele>394.8</ele>
        <time>2013-04-10T07:50:54Z</time>
      </trkpt>
      <trkpt lat="43.41908" lon="5.63722">
        <ele>396.1</ele>
        <time>2013-04-10T07:50:55Z</time>
      </trkpt>
      <trkpt lat="43.41908" lon="5.63724">
        <ele>397.5</ele>
        <time>2013-04-10T07:52:59Z</time>
      </trkpt>
      <trkpt lat="43.41909" lon="5.63723">
        <ele>397.5</ele>
        <time>2013-04-10T07:53:00Z</time>
      </trkpt>
      <trkpt lat="43.41924" lon="5.63719">
        <ele>396.5</ele>
        <time>2013-04-10T07:53:21Z</time>
      </trkpt>
      <trkpt lat="43.41933" lon="5.6372">
        <ele>396.2</ele>
        <time>2013-04-10T07:53:29Z</time>
      </trkpt>
      <trkpt lat="43.41941" lon="5.63721">
        <ele>396.2</ele>
        <time>2013-04-10T07:53:37Z</time>
      </trkpt>
      <trkpt lat="43.4195" lon="5.63721">
        <ele>396.8</ele>
        <time>2013-04-10T07:53:45Z</time>
      </trkpt>
      <trkpt lat="43.41959" lon="5.63719">
        <ele>396.7</ele>
        <time>2013-04-10T07:53:53Z</time>
      </trkpt>
      <trkpt lat="43.41966" lon="5.63713">
        <ele>396.1</ele>
        <time>2013-04-10T07:54:00Z</time>
      </trkpt>
      <trkpt lat="43.41967" lon="5.63712">
        <ele>395.7</ele>
        <time>2013-04-10T07:54:01Z</time>
      </trkpt>
      <trkpt lat="43.41979" lon="5.637">
        <ele>393.2</ele>
        <time>2013-04-10T07:54:14Z</time>
      </trkpt>
      <trkpt lat="43.41985" lon="5.63693">
        <ele>392.8</ele>
        <time>2013-04-10T07:54:20Z</time>
      </trkpt>
      <trkpt lat="43.41991" lon="5.63686">
        <ele>389.2</ele>
        <time>2013-04-10T07:54:27Z</time>
      </trkpt>
      <trkpt lat="43.41997" lon="5.63678">
        <ele>386.1</ele>
        <time>2013-04-10T07:54:34Z</time>
      </trkpt>
      <trkpt lat="43.42002" lon="5.6367">
        <ele>386</ele>
        <time>2013-04-10T07:54:39Z</time>
      </trkpt>
      <trkpt lat="43.42007" lon="5.63661">
        <ele>387.7</ele>
        <time>2013-04-10T07:54:44Z</time>
      </trkpt>
      <trkpt lat="43.42011" lon="5.63652">
        <ele>389.1</ele>
        <time>2013-04-10T07:54:50Z</time>
      </trkpt>
      <trkpt lat="43.42015" lon="5.63642">
        <ele>390.7</ele>
        <time>2013-04-10T07:54:56Z</time>
      </trkpt>
      <trkpt lat="43.4202" lon="5.63632">
        <ele>391.2</ele>
        <time>2013-04-10T07:55:03Z</time>
      </trkpt>
      <trkpt lat="43.42021" lon="5.63631">
        <ele>391.3</ele>
        <time>2013-04-10T07:55:04Z</time>
      </trkpt>
      <trkpt lat="43.42028" lon="5.63613">
        <ele>392.5</ele>
        <time>2013-04-10T07:55:16Z</time>
      </trkpt>
      <trkpt lat="43.42031" lon="5.63602">
        <ele>393.7</ele>
        <time>2013-04-10T07:55:22Z</time>
      </trkpt>
      <trkpt lat="43.42036" lon="5.63592">
        <ele>393.2</ele>
        <time>2013-04-10T07:55:29Z</time>
      </trkpt>
      <trkpt lat="43.42041" lon="5.63582">
        <ele>391.5</ele>
        <time>2013-04-10T07:55:36Z</time>
      </trkpt>
      <trkpt lat="43.42045" lon="5.63573">
        <ele>391.7</ele>
        <time>2013-04-10T07:55:42Z</time>
      </trkpt>
      <trkpt lat="43.42053" lon="5.63566">
        <ele>391.2</ele>
        <time>2013-04-10T07:55:49Z</time>
      </trkpt>
      <trkpt lat="43.42061" lon="5.63563">
        <ele>389.7</ele>
        <time>2013-04-10T07:55:57Z</time>
      </trkpt>
      <trkpt lat="43.42069" lon="5.63558">
        <ele>389.7</ele>
        <time>2013-04-10T07:56:06Z</time>
      </trkpt>
      <trkpt lat="43.4207" lon="5.63557">
        <ele>389.8</ele>
        <time>2013-04-10T07:56:07Z</time>
      </trkpt>
      <trkpt lat="43.42083" lon="5.63546">
        <ele>390.3</ele>
        <time>2013-04-10T07:56:20Z</time>
      </trkpt>
      <trkpt lat="43.4209" lon="5.63541">
        <ele>390.1</ele>
        <time>2013-04-10T07:56:28Z</time>
      </trkpt>
      <trkpt lat="43.42098" lon="5.63538">
        <ele>390.2</ele>
        <time>2013-04-10T07:56:36Z</time>
      </trkpt>
      <trkpt lat="43.42106" lon="5.63539">
        <ele>391</ele>
        <time>2013-04-10T07:56:41Z</time>
      </trkpt>
      <trkpt lat="43.42115" lon="5.63542">
        <ele>391.5</ele>
        <time>2013-04-10T07:56:46Z</time>
      </trkpt>
      <trkpt lat="43.42123" lon="5.63545">
        <ele>392.1</ele>
        <time>2013-04-10T07:56:50Z</time>
      </trkpt>
      <trkpt lat="43.4213" lon="5.6355">
        <ele>392.3</ele>
        <time>2013-04-10T07:56:56Z</time>
      </trkpt>
      <trkpt lat="43.42138" lon="5.63549">
        <ele>392.8</ele>
        <time>2013-04-10T07:57:07Z</time>
      </trkpt>
      <trkpt lat="43.42139" lon="5.63549">
        <ele>393</ele>
        <time>2013-04-10T07:57:08Z</time>
      </trkpt>
      <trkpt lat="43.42154" lon="5.63544">
        <ele>389.7</ele>
        <time>2013-04-10T07:57:20Z</time>
      </trkpt>
      <trkpt lat="43.42162" lon="5.6354">
        <ele>386.5</ele>
        <time>2013-04-10T07:57:28Z</time>
      </trkpt>
      <trkpt lat="43.4217" lon="5.63541">
        <ele>384.3</ele>
        <time>2013-04-10T07:57:35Z</time>
      </trkpt>
      <trkpt lat="43.42178" lon="5.63536">
        <ele>383.8</ele>
        <time>2013-04-10T07:57:41Z</time>
      </trkpt>
      <trkpt lat="43.42187" lon="5.63534">
        <ele>384.2</ele>
        <time>2013-04-10T07:57:48Z</time>
      </trkpt>
      <trkpt lat="43.42194" lon="5.63532">
        <ele>383.6</ele>
        <time>2013-04-10T07:57:54Z</time>
      </trkpt>
      <trkpt lat="43.42202" lon="5.63529">
        <ele>383.5</ele>
        <time>2013-04-10T07:58:01Z</time>
      </trkpt>
      <trkpt lat="43.42211" lon="5.63529">
        <ele>382.2</ele>
        <time>2013-04-10T07:58:12Z</time>
      </trkpt>
      <trkpt lat="43.42211" lon="5.63529">
        <ele>382.2</ele>
        <time>2013-04-10T07:58:13Z</time>
      </trkpt>
      <trkpt lat="43.42226" lon="5.63526">
        <ele>383.3</ele>
        <time>2013-04-10T07:58:24Z</time>
      </trkpt>
      <trkpt lat="43.42235" lon="5.63522">
        <ele>384.5</ele>
        <time>2013-04-10T07:58:30Z</time>
      </trkpt>
      <trkpt lat="43.42243" lon="5.63519">
        <ele>383.5</ele>
        <time>2013-04-10T07:58:35Z</time>
      </trkpt>
      <trkpt lat="43.4225" lon="5.63515">
        <ele>383</ele>
        <time>2013-04-10T07:58:40Z</time>
      </trkpt>
      <trkpt lat="43.42259" lon="5.63513">
        <ele>381.7</ele>
        <time>2013-04-10T07:58:46Z</time>
      </trkpt>
      <trkpt lat="43.42266" lon="5.63508">
        <ele>381.1</ele>
        <time>2013-04-10T07:58:52Z</time>
      </trkpt>
      <trkpt lat="43.42272" lon="5.63499">
        <ele>382.5</ele>
        <time>2013-04-10T07:58:58Z</time>
      </trkpt>
      <trkpt lat="43.42279" lon="5.63491">
        <ele>381</ele>
        <time>2013-04-10T07:59:05Z</time>
      </trkpt>
      <trkpt lat="43.42284" lon="5.63483">
        <ele>382.2</ele>
        <time>2013-04-10T07:59:11Z</time>
      </trkpt>
      <trkpt lat="43.42291" lon="5.63478">
        <ele>382</ele>
        <time>2013-04-10T07:59:17Z</time>
      </trkpt>
      <trkpt lat="43.42292" lon="5.63477">
        <ele>382.2</ele>
        <time>2013-04-10T07:59:18Z</time>
      </trkpt>
      <trkpt lat="43.42302" lon="5.63462">
        <ele>382.3</ele>
        <time>2013-04-10T07:59:30Z</time>
      </trkpt>
      <trkpt lat="43.42307" lon="5.63453">
        <ele>383.8</ele>
        <time>2013-04-10T07:59:35Z</time>
      </trkpt>
      <trkpt lat="43.42311" lon="5.63443">
        <ele>383.6</ele>
        <time>2013-04-10T07:59:41Z</time>
      </trkpt>
      <trkpt lat="43.42316" lon="5.63434">
        <ele>383.2</ele>
        <time>2013-04-10T07:59:47Z</time>
      </trkpt>
      <trkpt lat="43.42322" lon="5.63427">
        <ele>384</ele>
        <time>2013-04-10T07:59:53Z</time>
      </trkpt>
      <trkpt lat="43.42329" lon="5.63419">
        <ele>383.7</ele>
        <time>2013-04-10T08:00:01Z</time>
      </trkpt>
      <trkpt lat="43.42336" lon="5.63413">
        <ele>383.6</ele>
        <time>2013-04-10T08:00:08Z</time>
      </trkpt>
      <trkpt lat="43.42343" lon="5.6341">
        <ele>383</ele>
        <time>2013-04-10T08:00:14Z</time>
      </trkpt>
      <trkpt lat="43.42351" lon="5.63408">
        <ele>382.7</ele>
        <time>2013-04-10T08:00:20Z</time>
      </trkpt>
      <trkpt lat="43.42352" lon="5.63408">
        <ele>382.3</ele>
        <time>2013-04-10T08:00:21Z</time>
      </trkpt>
      <trkpt lat="43.42367" lon="5.63402">
        <ele>381.1</ele>
        <time>2013-04-10T08:00:33Z</time>
      </trkpt>
      <trkpt lat="43.42375" lon="5.63398">
        <ele>380</ele>
        <time>2013-04-10T08:00:40Z</time>
      </trkpt>
      <trkpt lat="43.42382" lon="5.63393">
        <ele>380.2</ele>
        <time>2013-04-10T08:00:46Z</time>
      </trkpt>
      <trkpt lat="43.4239" lon="5.63391">
        <ele>381</ele>
        <time>2013-04-10T08:00:51Z</time>
      </trkpt>
      <trkpt lat="43.42398" lon="5.63388">
        <ele>381.7</ele>
        <time>2013-04-10T08:00:57Z</time>
      </trkpt>
      <trkpt lat="43.42405" lon="5.63385">
        <ele>381.5</ele>
        <time>2013-04-10T08:01:04Z</time>
      </trkpt>
      <trkpt lat="43.42414" lon="5.63381">
        <ele>379.6</ele>
        <time>2013-04-10T08:01:11Z</time>
      </trkpt>
      <trkpt lat="43.42421" lon="5.63379">
        <ele>377.7</ele>
        <time>2013-04-10T08:01:17Z</time>
      </trkpt>
      <trkpt lat="43.4243" lon="5.63375">
        <ele>376.2</ele>
        <time>2013-04-10T08:01:24Z</time>
      </trkpt>
      <trkpt lat="43.42431" lon="5.63374">
        <ele>376.1</ele>
        <time>2013-04-10T08:01:25Z</time>
      </trkpt>
      <trkpt lat="43.42443" lon="5.63363">
        <ele>374.8</ele>
        <time>2013-04-10T08:01:36Z</time>
      </trkpt>
      <trkpt lat="43.4245" lon="5.63357">
        <ele>373.7</ele>
        <time>2013-04-10T08:01:42Z</time>
      </trkpt>
      <trkpt lat="43.42456" lon="5.63348">
        <ele>372.5</ele>
        <time>2013-04-10T08:01:49Z</time>
      </trkpt>
      <trkpt lat="43.42462" lon="5.63341">
        <ele>372.1</ele>
        <time>2013-04-10T08:01:55Z</time>
      </trkpt>
      <trkpt lat="43.42468" lon="5.63334">
        <ele>372.5</ele>
        <time>2013-04-10T08:02:01Z</time>
      </trkpt>
      <trkpt lat="43.42475" lon="5.63327">
        <ele>371.7</ele>
        <time>2013-04-10T08:02:08Z</time>
      </trkpt>
      <trkpt lat="43.42481" lon="5.63319">
        <ele>371.2</ele>
        <time>2013-04-10T08:02:14Z</time>
      </trkpt>
      <trkpt lat="43.42487" lon="5.63313">
        <ele>370.1</ele>
        <time>2013-04-10T08:02:20Z</time>
      </trkpt>
      <trkpt lat="43.42493" lon="5.63305">
        <ele>370</ele>
        <time>2013-04-10T08:02:26Z</time>
      </trkpt>
      <trkpt lat="43.42494" lon="5.63304">
        <ele>370</ele>
        <time>2013-04-10T08:02:27Z</time>
      </trkpt>
      <trkpt lat="43.42505" lon="5.6329">
        <ele>369.5</ele>
        <time>2013-04-10T08:02:38Z</time>
      </trkpt>
      <trkpt lat="43.42513" lon="5.63287">
        <ele>368.6</ele>
        <time>2013-04-10T08:02:45Z</time>
      </trkpt>
      <trkpt lat="43.42521" lon="5.63285">
        <ele>367</ele>
        <time>2013-04-10T08:02:52Z</time>
      </trkpt>
      <trkpt lat="43.42528" lon="5.6328">
        <ele>365.7</ele>
        <time>2013-04-10T08:02:58Z</time>
      </trkpt>
      <trkpt lat="43.42534" lon="5.63273">
        <ele>364.7</ele>
        <time>2013-04-10T08:03:04Z</time>
      </trkpt>
      <trkpt lat="43.42541" lon="5.63269">
        <ele>362.7</ele>
        <time>2013-04-10T08:03:11Z</time>
      </trkpt>
      <trkpt lat="43.4255" lon="5.63269">
        <ele>360.7</ele>
        <time>2013-04-10T08:03:19Z</time>
      </trkpt>
      <trkpt lat="43.42558" lon="5.6327">
        <ele>360</ele>
        <time>2013-04-10T08:03:26Z</time>
      </trkpt>
      <trkpt lat="43.42567" lon="5.6327">
        <ele>360.2</ele>
        <time>2013-04-10T08:03:32Z</time>
      </trkpt>
      <trkpt lat="43.42568" lon="5.6327">
        <ele>360.5</ele>
        <time>2013-04-10T08:03:33Z</time>
      </trkpt>
      <trkpt lat="43.42582" lon="5.63262">
        <ele>361.1</ele>
        <time>2013-04-10T08:03:45Z</time>
      </trkpt>
      <trkpt lat="43.42586" lon="5.63252">
        <ele>360.8</ele>
        <time>2013-04-10T08:03:52Z</time>
      </trkpt>
      <trkpt lat="43.42588" lon="5.6324">
        <ele>360.1</ele>
        <time>2013-04-10T08:03:59Z</time>
      </trkpt>
      <trkpt lat="43.42591" lon="5.63229">
        <ele>359</ele>
        <time>2013-04-10T08:04:06Z</time>
      </trkpt>
      <trkpt lat="43.42596" lon="5.6322">
        <ele>357.7</ele>
        <time>2013-04-10T08:04:12Z</time>
      </trkpt>
      <trkpt lat="43.42601" lon="5.6321">
        <ele>356.2</ele>
        <time>2013-04-10T08:04:19Z</time>
      </trkpt>
      <trkpt lat="43.42605" lon="5.632">
        <ele>357.2</ele>
        <time>2013-04-10T08:04:25Z</time>
      </trkpt>
      <trkpt lat="43.42611" lon="5.63192">
        <ele>355.3</ele>
        <time>2013-04-10T08:04:32Z</time>
      </trkpt>
      <trkpt lat="43.42617" lon="5.63183">
        <ele>350.8</ele>
        <time>2013-04-10T08:04:39Z</time>
      </trkpt>
      <trkpt lat="43.42618" lon="5.63182">
        <ele>350.6</ele>
        <time>2013-04-10T08:04:40Z</time>
      </trkpt>
      <trkpt lat="43.42627" lon="5.63166">
        <ele>350.7</ele>
        <time>2013-04-10T08:04:51Z</time>
      </trkpt>
      <trkpt lat="43.42634" lon="5.6316">
        <ele>349.7</ele>
        <time>2013-04-10T08:04:58Z</time>
      </trkpt>
      <trkpt lat="43.4264" lon="5.63152">
        <ele>349.3</ele>
        <time>2013-04-10T08:05:05Z</time>
      </trkpt>
      <trkpt lat="43.42647" lon="5.63146">
        <ele>348.3</ele>
        <time>2013-04-10T08:05:12Z</time>
      </trkpt>
      <trkpt lat="43.42654" lon="5.6314">
        <ele>346.8</ele>
        <time>2013-04-10T08:05:19Z</time>
      </trkpt>
      <trkpt lat="43.42662" lon="5.63137">
        <ele>345.7</ele>
        <time>2013-04-10T08:05:26Z</time>
      </trkpt>
      <trkpt lat="43.4267" lon="5.63132">
        <ele>346.1</ele>
        <time>2013-04-10T08:05:34Z</time>
      </trkpt>
      <trkpt lat="43.42678" lon="5.63128">
        <ele>347.1</ele>
        <time>2013-04-10T08:05:40Z</time>
      </trkpt>
      <trkpt lat="43.42679" lon="5.63128">
        <ele>347.2</ele>
        <time>2013-04-10T08:05:41Z</time>
      </trkpt>
      <trkpt lat="43.42694" lon="5.63125">
        <ele>345.8</ele>
        <time>2013-04-10T08:05:58Z</time>
      </trkpt>
      <trkpt lat="43.42702" lon="5.63131">
        <ele>344.6</ele>
        <time>2013-04-10T08:06:05Z</time>
      </trkpt>
      <trkpt lat="43.42709" lon="5.63137">
        <ele>343.7</ele>
        <time>2013-04-10T08:06:13Z</time>
      </trkpt>
      <trkpt lat="43.42716" lon="5.63143">
        <ele>343.8</ele>
        <time>2013-04-10T08:06:22Z</time>
      </trkpt>
      <trkpt lat="43.42724" lon="5.63147">
        <ele>342.6</ele>
        <time>2013-04-10T08:06:29Z</time>
      </trkpt>
      <trkpt lat="43.42731" lon="5.63149">
        <ele>342.1</ele>
        <time>2013-04-10T08:06:34Z</time>
      </trkpt>
      <trkpt lat="43.4274" lon="5.63151">
        <ele>342.2</ele>
        <time>2013-04-10T08:06:40Z</time>
      </trkpt>
      <trkpt lat="43.42748" lon="5.63153">
        <ele>342.1</ele>
        <time>2013-04-10T08:06:45Z</time>
      </trkpt>
      <trkpt lat="43.4275" lon="5.63153">
        <ele>342.2</ele>
        <time>2013-04-10T08:06:46Z</time>
      </trkpt>
      <trkpt lat="43.42764" lon="5.63159">
        <ele>342.7</ele>
        <time>2013-04-10T08:06:55Z</time>
      </trkpt>
      <trkpt lat="43.42771" lon="5.63166">
        <ele>339.2</ele>
        <time>2013-04-10T08:07:04Z</time>
      </trkpt>
      <trkpt lat="43.4278" lon="5.63169">
        <ele>336.7</ele>
        <time>2013-04-10T08:07:13Z</time>
      </trkpt>
      <trkpt lat="43.42788" lon="5.6317">
        <ele>335.1</ele>
        <time>2013-04-10T08:07:20Z</time>
      </trkpt>
      <trkpt lat="43.42797" lon="5.63169">
        <ele>334.5</ele>
        <time>2013-04-10T08:07:27Z</time>
      </trkpt>
      <trkpt lat="43.42805" lon="5.63169">
        <ele>333.7</ele>
        <time>2013-04-10T08:07:33Z</time>
      </trkpt>
      <trkpt lat="43.42813" lon="5.63168">
        <ele>335.5</ele>
        <time>2013-04-10T08:07:38Z</time>
      </trkpt>
      <trkpt lat="43.42822" lon="5.63166">
        <ele>337</ele>
        <time>2013-04-10T08:07:43Z</time>
      </trkpt>
      <trkpt lat="43.4283" lon="5.63163">
        <ele>338.7</ele>
        <time>2013-04-10T08:07:49Z</time>
      </trkpt>
      <trkpt lat="43.42831" lon="5.63162">
        <ele>338.6</ele>
        <time>2013-04-10T08:07:50Z</time>
      </trkpt>
      <trkpt lat="43.42845" lon="5.63154">
        <ele>336.7</ele>
        <time>2013-04-10T08:08:02Z</time>
      </trkpt>
      <trkpt lat="43.42853" lon="5.63152">
        <ele>335.7</ele>
        <time>2013-04-10T08:08:08Z</time>
      </trkpt>
      <trkpt lat="43.42861" lon="5.63153">
        <ele>336</ele>
        <time>2013-04-10T08:08:13Z</time>
      </trkpt>
      <trkpt lat="43.42869" lon="5.63155">
        <ele>335.2</ele>
        <time>2013-04-10T08:08:19Z</time>
      </trkpt>
      <trkpt lat="43.42878" lon="5.63153">
        <ele>335.2</ele>
        <time>2013-04-10T08:08:26Z</time>
      </trkpt>
      <trkpt lat="43.42886" lon="5.6315">
        <ele>334.3</ele>
        <time>2013-04-10T08:08:33Z</time>
      </trkpt>
      <trkpt lat="43.42894" lon="5.63145">
        <ele>333.2</ele>
        <time>2013-04-10T08:08:40Z</time>
      </trkpt>
      <trkpt lat="43.42902" lon="5.63142">
        <ele>332.2</ele>
        <time>2013-04-10T08:08:47Z</time>
      </trkpt>
      <trkpt lat="43.4291" lon="5.63136">
        <ele>332.1</ele>
        <time>2013-04-10T08:08:53Z</time>
      </trkpt>
      <trkpt lat="43.42911" lon="5.63136">
        <ele>331.6</ele>
        <time>2013-04-10T08:08:54Z</time>
      </trkpt>
      <trkpt lat="43.42923" lon="5.63121">
        <ele>328</ele>
        <time>2013-04-10T08:09:09Z</time>
      </trkpt>
      <trkpt lat="43.42929" lon="5.63114">
        <ele>325.6</ele>
        <time>2013-04-10T08:09:16Z</time>
      </trkpt>
      <trkpt lat="43.42933" lon="5.63105">
        <ele>325.6</ele>
        <time>2013-04-10T08:09:23Z</time>
      </trkpt>
      <trkpt lat="43.42941" lon="5.63102">
        <ele>327.3</ele>
        <time>2013-04-10T08:09:28Z</time>
      </trkpt>
      <trkpt lat="43.42949" lon="5.63098">
        <ele>327.1</ele>
        <time>2013-04-10T08:09:34Z</time>
      </trkpt>
      <trkpt lat="43.42955" lon="5.63091">
        <ele>328</ele>
        <time>2013-04-10T08:09:40Z</time>
      </trkpt>
      <trkpt lat="43.42962" lon="5.63084">
        <ele>329</ele>
        <time>2013-04-10T08:09:46Z</time>
      </trkpt>
      <trkpt lat="43.42967" lon="5.63077">
        <ele>330.7</ele>
        <time>2013-04-10T08:09:53Z</time>
      </trkpt>
      <trkpt lat="43.42974" lon="5.63069">
        <ele>329.3</ele>
        <time>2013-04-10T08:10:03Z</time>
      </trkpt>
      <trkpt lat="43.42974" lon="5.63069">
        <ele>329.2</ele>
        <time>2013-04-10T08:10:04Z</time>
      </trkpt>
      <trkpt lat="43.42989" lon="5.63057">
        <ele>330.6</ele>
        <time>2013-04-10T08:10:25Z</time>
      </trkpt>
      <trkpt lat="43.42995" lon="5.63048">
        <ele>333.2</ele>
        <time>2013-04-10T08:10:45Z</time>
      </trkpt>
      <trkpt lat="43.42998" lon="5.63037">
        <ele>338</ele>
        <time>2013-04-10T08:13:01Z</time>
      </trkpt>
      <trkpt lat="43.42998" lon="5.63037">
        <ele>337.8</ele>
        <time>2013-04-10T08:13:02Z</time>
      </trkpt>
      <trkpt lat="43.42997" lon="5.63039">
        <ele>336.2</ele>
        <time>2013-04-10T08:14:28Z</time>
      </trkpt>
      <trkpt lat="43.42997" lon="5.63038">
        <ele>336.2</ele>
        <time>2013-04-10T08:14:29Z</time>
      </trkpt>
      <trkpt lat="43.43004" lon="5.63032">
        <ele>339.5</ele>
        <time>2013-04-10T08:22:59Z</time>
      </trkpt>
      <trkpt lat="43.43016" lon="5.63015">
        <ele>332.8</ele>
        <time>2013-04-10T08:23:48Z</time>
      </trkpt>
      <trkpt lat="43.43023" lon="5.63009">
        <ele>330.7</ele>
        <time>2013-04-10T08:23:56Z</time>
      </trkpt>
      <trkpt lat="43.43032" lon="5.63004">
        <ele>328.6</ele>
        <time>2013-04-10T08:24:05Z</time>
      </trkpt>
      <trkpt lat="43.43032" lon="5.63003">
        <ele>328.2</ele>
        <time>2013-04-10T08:24:06Z</time>
      </trkpt>
      <trkpt lat="43.43046" lon="5.62991">
        <ele>325.5</ele>
        <time>2013-04-10T08:24:21Z</time>
      </trkpt>
      <trkpt lat="43.43052" lon="5.62983">
        <ele>325.3</ele>
        <time>2013-04-10T08:24:28Z</time>
      </trkpt>
      <trkpt lat="43.43058" lon="5.62976">
        <ele>326.7</ele>
        <time>2013-04-10T08:24:34Z</time>
      </trkpt>
      <trkpt lat="43.43063" lon="5.62966">
        <ele>325.3</ele>
        <time>2013-04-10T08:24:41Z</time>
      </trkpt>
      <trkpt lat="43.4307" lon="5.62959">
        <ele>325.6</ele>
        <time>2013-04-10T08:24:47Z</time>
      </trkpt>
      <trkpt lat="43.43074" lon="5.62949">
        <ele>322.8</ele>
        <time>2013-04-10T08:24:54Z</time>
      </trkpt>
      <trkpt lat="43.4308" lon="5.6294">
        <ele>321.5</ele>
        <time>2013-04-10T08:25:01Z</time>
      </trkpt>
      <trkpt lat="43.43087" lon="5.62933">
        <ele>321.1</ele>
        <time>2013-04-10T08:25:07Z</time>
      </trkpt>
      <trkpt lat="43.43088" lon="5.62932">
        <ele>321.7</ele>
        <time>2013-04-10T08:25:08Z</time>
      </trkpt>
      <trkpt lat="43.43099" lon="5.62919">
        <ele>320.6</ele>
        <time>2013-04-10T08:25:19Z</time>
      </trkpt>
      <trkpt lat="43.43106" lon="5.62913">
        <ele>320.7</ele>
        <time>2013-04-10T08:25:24Z</time>
      </trkpt>
      <trkpt lat="43.43113" lon="5.62908">
        <ele>320</ele>
        <time>2013-04-10T08:25:30Z</time>
      </trkpt>
      <trkpt lat="43.4312" lon="5.62902">
        <ele>319.5</ele>
        <time>2013-04-10T08:25:36Z</time>
      </trkpt>
      <trkpt lat="43.43126" lon="5.62895">
        <ele>320.7</ele>
        <time>2013-04-10T08:25:41Z</time>
      </trkpt>
      <trkpt lat="43.43133" lon="5.62889">
        <ele>318.7</ele>
        <time>2013-04-10T08:25:49Z</time>
      </trkpt>
      <trkpt lat="43.43141" lon="5.62885">
        <ele>318.5</ele>
        <time>2013-04-10T08:25:56Z</time>
      </trkpt>
      <trkpt lat="43.43149" lon="5.62882">
        <ele>317.8</ele>
        <time>2013-04-10T08:26:01Z</time>
      </trkpt>
      <trkpt lat="43.43156" lon="5.62876">
        <ele>319.6</ele>
        <time>2013-04-10T08:26:07Z</time>
      </trkpt>
      <trkpt lat="43.43162" lon="5.62868">
        <ele>322.2</ele>
        <time>2013-04-10T08:26:13Z</time>
      </trkpt>
      <trkpt lat="43.43163" lon="5.62867">
        <ele>322.3</ele>
        <time>2013-04-10T08:26:14Z</time>
      </trkpt>
      <trkpt lat="43.43176" lon="5.62857">
        <ele>322.2</ele>
        <time>2013-04-10T08:26:25Z</time>
      </trkpt>
      <trkpt lat="43.43183" lon="5.6285">
        <ele>318.3</ele>
        <time>2013-04-10T08:26:33Z</time>
      </trkpt>
      <trkpt lat="43.43189" lon="5.62843">
        <ele>315.3</ele>
        <time>2013-04-10T08:26:40Z</time>
      </trkpt>
      <trkpt lat="43.43195" lon="5.62837">
        <ele>313.5</ele>
        <time>2013-04-10T08:26:47Z</time>
      </trkpt>
      <trkpt lat="43.43202" lon="5.6283">
        <ele>311.7</ele>
        <time>2013-04-10T08:26:55Z</time>
      </trkpt>
      <trkpt lat="43.4321" lon="5.62824">
        <ele>310.8</ele>
        <time>2013-04-10T08:27:02Z</time>
      </trkpt>
      <trkpt lat="43.43218" lon="5.6282">
        <ele>311.5</ele>
        <time>2013-04-10T08:27:09Z</time>
      </trkpt>
      <trkpt lat="43.43226" lon="5.62817">
        <ele>312.5</ele>
        <time>2013-04-10T08:27:15Z</time>
      </trkpt>
      <trkpt lat="43.43227" lon="5.62817">
        <ele>312.3</ele>
        <time>2013-04-10T08:27:16Z</time>
      </trkpt>
      <trkpt lat="43.43243" lon="5.62819">
        <ele>313.5</ele>
        <time>2013-04-10T08:27:27Z</time>
      </trkpt>
      <trkpt lat="43.43251" lon="5.62821">
        <ele>314.7</ele>
        <time>2013-04-10T08:27:33Z</time>
      </trkpt>
      <trkpt lat="43.43257" lon="5.62823">
        <ele>316.2</ele>
        <time>2013-04-10T08:27:38Z</time>
      </trkpt>
      <trkpt lat="43.43265" lon="5.62823">
        <ele>317.6</ele>
        <time>2013-04-10T08:27:43Z</time>
      </trkpt>
      <trkpt lat="43.43274" lon="5.6282">
        <ele>318.2</ele>
        <time>2013-04-10T08:27:56Z</time>
      </trkpt>
      <trkpt lat="43.43282" lon="5.62825">
        <ele>316.2</ele>
        <time>2013-04-10T08:28:04Z</time>
      </trkpt>
      <trkpt lat="43.43288" lon="5.62833">
        <ele>316.7</ele>
        <time>2013-04-10T08:28:12Z</time>
      </trkpt>
      <trkpt lat="43.43294" lon="5.6284">
        <ele>316</ele>
        <time>2013-04-10T08:28:19Z</time>
      </trkpt>
      <trkpt lat="43.43295" lon="5.62842">
        <ele>315.7</ele>
        <time>2013-04-10T08:28:20Z</time>
      </trkpt>
      <trkpt lat="43.43307" lon="5.62856">
        <ele>315.5</ele>
        <time>2013-04-10T08:28:33Z</time>
      </trkpt>
      <trkpt lat="43.43314" lon="5.62863">
        <ele>317.6</ele>
        <time>2013-04-10T08:28:40Z</time>
      </trkpt>
      <trkpt lat="43.43322" lon="5.62869">
        <ele>317.3</ele>
        <time>2013-04-10T08:28:46Z</time>
      </trkpt>
      <trkpt lat="43.4333" lon="5.62872">
        <ele>315.7</ele>
        <time>2013-04-10T08:28:53Z</time>
      </trkpt>
      <trkpt lat="43.43337" lon="5.62875">
        <ele>314</ele>
        <time>2013-04-10T08:29:00Z</time>
      </trkpt>
      <trkpt lat="43.43346" lon="5.62877">
        <ele>316.2</ele>
        <time>2013-04-10T08:29:06Z</time>
      </trkpt>
      <trkpt lat="43.43354" lon="5.62881">
        <ele>318.5</ele>
        <time>2013-04-10T08:29:13Z</time>
      </trkpt>
      <trkpt lat="43.43362" lon="5.62884">
        <ele>317.6</ele>
        <time>2013-04-10T08:29:20Z</time>
      </trkpt>
      <trkpt lat="43.43363" lon="5.62884">
        <ele>317.5</ele>
        <time>2013-04-10T08:29:21Z</time>
      </trkpt>
      <trkpt lat="43.43378" lon="5.6289">
        <ele>317.7</ele>
        <time>2013-04-10T08:29:36Z</time>
      </trkpt>
      <trkpt lat="43.43386" lon="5.62894">
        <ele>318</ele>
        <time>2013-04-10T08:29:43Z</time>
      </trkpt>
      <trkpt lat="43.43394" lon="5.62898">
        <ele>318.7</ele>
        <time>2013-04-10T08:29:51Z</time>
      </trkpt>
      <trkpt lat="43.43402" lon="5.62903">
        <ele>318.7</ele>
        <time>2013-04-10T08:29:58Z</time>
      </trkpt>
      <trkpt lat="43.43409" lon="5.62908">
        <ele>319.6</ele>
        <time>2013-04-10T08:30:04Z</time>
      </trkpt>
      <trkpt lat="43.43417" lon="5.62912">
        <ele>318.5</ele>
        <time>2013-04-10T08:30:10Z</time>
      </trkpt>
      <trkpt lat="43.43426" lon="5.62916">
        <ele>316.7</ele>
        <time>2013-04-10T08:30:16Z</time>
      </trkpt>
      <trkpt lat="43.43433" lon="5.62917">
        <ele>315</ele>
        <time>2013-04-10T08:30:22Z</time>
      </trkpt>
      <trkpt lat="43.43435" lon="5.62917">
        <ele>315</ele>
        <time>2013-04-10T08:30:23Z</time>
      </trkpt>
      <trkpt lat="43.4345" lon="5.62916">
        <ele>314.2</ele>
        <time>2013-04-10T08:30:35Z</time>
      </trkpt>
      <trkpt lat="43.43459" lon="5.62916">
        <ele>313.5</ele>
        <time>2013-04-10T08:30:42Z</time>
      </trkpt>
      <trkpt lat="43.43467" lon="5.62916">
        <ele>314.7</ele>
        <time>2013-04-10T08:30:47Z</time>
      </trkpt>
      <trkpt lat="43.43476" lon="5.62915">
        <ele>315.1</ele>
        <time>2013-04-10T08:30:54Z</time>
      </trkpt>
      <trkpt lat="43.43485" lon="5.62913">
        <ele>315.7</ele>
        <time>2013-04-10T08:31:02Z</time>
      </trkpt>
      <trkpt lat="43.43493" lon="5.62913">
        <ele>317</ele>
        <time>2013-04-10T08:31:08Z</time>
      </trkpt>
      <trkpt lat="43.43502" lon="5.62913">
        <ele>316.3</ele>
        <time>2013-04-10T08:31:16Z</time>
      </trkpt>
      <trkpt lat="43.43511" lon="5.62913">
        <ele>315.7</ele>
        <time>2013-04-10T08:31:23Z</time>
      </trkpt>
      <trkpt lat="43.43512" lon="5.62913">
        <ele>315.7</ele>
        <time>2013-04-10T08:31:24Z</time>
      </trkpt>
      <trkpt lat="43.43527" lon="5.62913">
        <ele>314.3</ele>
        <time>2013-04-10T08:31:36Z</time>
      </trkpt>
      <trkpt lat="43.43535" lon="5.62914">
        <ele>313.7</ele>
        <time>2013-04-10T08:31:40Z</time>
      </trkpt>
      <trkpt lat="43.43543" lon="5.62914">
        <ele>310.7</ele>
        <time>2013-04-10T08:31:48Z</time>
      </trkpt>
      <trkpt lat="43.43552" lon="5.62913">
        <ele>311.6</ele>
        <time>2013-04-10T08:31:55Z</time>
      </trkpt>
      <trkpt lat="43.4356" lon="5.62913">
        <ele>313.3</ele>
        <time>2013-04-10T08:32:00Z</time>
      </trkpt>
      <trkpt lat="43.43569" lon="5.62912">
        <ele>310.7</ele>
        <time>2013-04-10T08:32:11Z</time>
      </trkpt>
      <trkpt lat="43.43576" lon="5.62911">
        <ele>312.1</ele>
        <time>2013-04-10T08:32:21Z</time>
      </trkpt>
      <trkpt lat="43.43585" lon="5.6291">
        <ele>312.1</ele>
        <time>2013-04-10T08:32:29Z</time>
      </trkpt>
      <trkpt lat="43.43587" lon="5.6291">
        <ele>312.6</ele>
        <time>2013-04-10T08:32:30Z</time>
      </trkpt>
      <trkpt lat="43.436" lon="5.6291">
        <ele>312.1</ele>
        <time>2013-04-10T08:32:39Z</time>
      </trkpt>
      <trkpt lat="43.43608" lon="5.62909">
        <ele>311.2</ele>
        <time>2013-04-10T08:32:46Z</time>
      </trkpt>
      <trkpt lat="43.43617" lon="5.6291">
        <ele>310.6</ele>
        <time>2013-04-10T08:32:52Z</time>
      </trkpt>
      <trkpt lat="43.43623" lon="5.6291">
        <ele>309.3</ele>
        <time>2013-04-10T08:32:57Z</time>
      </trkpt>
      <trkpt lat="43.43631" lon="5.62911">
        <ele>310.1</ele>
        <time>2013-04-10T08:33:01Z</time>
      </trkpt>
      <trkpt lat="43.43639" lon="5.62912">
        <ele>308</ele>
        <time>2013-04-10T08:33:07Z</time>
      </trkpt>
      <trkpt lat="43.43647" lon="5.62914">
        <ele>308.7</ele>
        <time>2013-04-10T08:33:14Z</time>
      </trkpt>
      <trkpt lat="43.43655" lon="5.62917">
        <ele>308.6</ele>
        <time>2013-04-10T08:33:21Z</time>
      </trkpt>
      <trkpt lat="43.43663" lon="5.62919">
        <ele>307.7</ele>
        <time>2013-04-10T08:33:28Z</time>
      </trkpt>
      <trkpt lat="43.43672" lon="5.62922">
        <ele>308.8</ele>
        <time>2013-04-10T08:33:33Z</time>
      </trkpt>
      <trkpt lat="43.43674" lon="5.62922">
        <ele>309.2</ele>
        <time>2013-04-10T08:33:34Z</time>
      </trkpt>
      <trkpt lat="43.43689" lon="5.62928">
        <ele>309.5</ele>
        <time>2013-04-10T08:33:48Z</time>
      </trkpt>
      <trkpt lat="43.43697" lon="5.62931">
        <ele>308.2</ele>
        <time>2013-04-10T08:33:54Z</time>
      </trkpt>
      <trkpt lat="43.43705" lon="5.62935">
        <ele>307.8</ele>
        <time>2013-04-10T08:34:01Z</time>
      </trkpt>
      <trkpt lat="43.43713" lon="5.62939">
        <ele>307.6</ele>
        <time>2013-04-10T08:34:07Z</time>
      </trkpt>
      <trkpt lat="43.43721" lon="5.62944">
        <ele>307.6</ele>
        <time>2013-04-10T08:34:15Z</time>
      </trkpt>
      <trkpt lat="43.43728" lon="5.62948">
        <ele>307.3</ele>
        <time>2013-04-10T08:34:21Z</time>
      </trkpt>
      <trkpt lat="43.43736" lon="5.62951">
        <ele>306.6</ele>
        <time>2013-04-10T08:34:28Z</time>
      </trkpt>
      <trkpt lat="43.43744" lon="5.62955">
        <ele>304.8</ele>
        <time>2013-04-10T08:34:35Z</time>
      </trkpt>
      <trkpt lat="43.43746" lon="5.62956">
        <ele>304.8</ele>
        <time>2013-04-10T08:34:36Z</time>
      </trkpt>
      <trkpt lat="43.43761" lon="5.62961">
        <ele>305.1</ele>
        <time>2013-04-10T08:34:48Z</time>
      </trkpt>
      <trkpt lat="43.43769" lon="5.62963">
        <ele>304.7</ele>
        <time>2013-04-10T08:34:55Z</time>
      </trkpt>
      <trkpt lat="43.43777" lon="5.62966">
        <ele>301.6</ele>
        <time>2013-04-10T08:35:00Z</time>
      </trkpt>
      <trkpt lat="43.43785" lon="5.62967">
        <ele>302</ele>
        <time>2013-04-10T08:35:07Z</time>
      </trkpt>
      <trkpt lat="43.43793" lon="5.6297">
        <ele>301.3</ele>
        <time>2013-04-10T08:35:15Z</time>
      </trkpt>
      <trkpt lat="43.43802" lon="5.62973">
        <ele>302.7</ele>
        <time>2013-04-10T08:35:23Z</time>
      </trkpt>
      <trkpt lat="43.43809" lon="5.62977">
        <ele>304.7</ele>
        <time>2013-04-10T08:35:29Z</time>
      </trkpt>
      <trkpt lat="43.43816" lon="5.62982">
        <ele>304.2</ele>
        <time>2013-04-10T08:35:35Z</time>
      </trkpt>
      <trkpt lat="43.43822" lon="5.62986">
        <ele>302.7</ele>
        <time>2013-04-10T08:35:40Z</time>
      </trkpt>
      <trkpt lat="43.43824" lon="5.62987">
        <ele>301.7</ele>
        <time>2013-04-10T08:35:41Z</time>
      </trkpt>
      <trkpt lat="43.43837" lon="5.62996">
        <ele>301.5</ele>
        <time>2013-04-10T08:35:52Z</time>
      </trkpt>
      <trkpt lat="43.43845" lon="5.63001">
        <ele>303.7</ele>
        <time>2013-04-10T08:35:59Z</time>
      </trkpt>
      <trkpt lat="43.43853" lon="5.63005">
        <ele>306.1</ele>
        <time>2013-04-10T08:36:05Z</time>
      </trkpt>
      <trkpt lat="43.43859" lon="5.63013">
        <ele>311.5</ele>
        <time>2013-04-10T08:36:39Z</time>
      </trkpt>
      <trkpt lat="43.43866" lon="5.6302">
        <ele>304.2</ele>
        <time>2013-04-10T08:37:00Z</time>
      </trkpt>
      <trkpt lat="43.43868" lon="5.6302">
        <ele>302.8</ele>
        <time>2013-04-10T08:37:01Z</time>
      </trkpt>
      <trkpt lat="43.43867" lon="5.63007">
        <ele>307.6</ele>
        <time>2013-04-10T08:40:09Z</time>
      </trkpt>
      <trkpt lat="43.43881" lon="5.63018">
        <ele>312.7</ele>
        <time>2013-04-10T08:40:52Z</time>
      </trkpt>
      <trkpt lat="43.43881" lon="5.63028">
        <ele>295.3</ele>
        <time>2013-04-10T08:44:19Z</time>
      </trkpt>
      <trkpt lat="43.43881" lon="5.6303">
        <ele>295.8</ele>
        <time>2013-04-10T08:44:20Z</time>
      </trkpt>
      <trkpt lat="43.43874" lon="5.63049">
        <ele>298.2</ele>
        <time>2013-04-10T08:44:33Z</time>
      </trkpt>
      <trkpt lat="43.43869" lon="5.63058">
        <ele>300.8</ele>
        <time>2013-04-10T08:44:40Z</time>
      </trkpt>
      <trkpt lat="43.43877" lon="5.63054">
        <ele>297.2</ele>
        <time>2013-04-10T08:46:41Z</time>
      </trkpt>
      <trkpt lat="43.43878" lon="5.63054">
        <ele>297</ele>
        <time>2013-04-10T08:46:42Z</time>
      </trkpt>
      <trkpt lat="43.43882" lon="5.63032">
        <ele>298.2</ele>
        <time>2013-04-10T08:47:10Z</time>
      </trkpt>
      <trkpt lat="43.43887" lon="5.63021">
        <ele>301.3</ele>
        <time>2013-04-10T08:47:25Z</time>
      </trkpt>
      <trkpt lat="43.43895" lon="5.63026">
        <ele>304.2</ele>
        <time>2013-04-10T08:48:14Z</time>
      </trkpt>
      <trkpt lat="43.43896" lon="5.63027">
        <ele>305</ele>
        <time>2013-04-10T08:48:15Z</time>
      </trkpt>
      <trkpt lat="43.43911" lon="5.63035">
        <ele>303.2</ele>
        <time>2013-04-10T08:48:30Z</time>
      </trkpt>
      <trkpt lat="43.43919" lon="5.63037">
        <ele>303.2</ele>
        <time>2013-04-10T08:48:39Z</time>
      </trkpt>
      <trkpt lat="43.43927" lon="5.6304">
        <ele>304.1</ele>
        <time>2013-04-10T08:48:45Z</time>
      </trkpt>
      <trkpt lat="43.43935" lon="5.63046">
        <ele>305.7</ele>
        <time>2013-04-10T08:48:54Z</time>
      </trkpt>
      <trkpt lat="43.43943" lon="5.63051">
        <ele>307.6</ele>
        <time>2013-04-10T08:49:02Z</time>
      </trkpt>
      <trkpt lat="43.43951" lon="5.63054">
        <ele>305.7</ele>
        <time>2013-04-10T08:49:09Z</time>
      </trkpt>
      <trkpt lat="43.43958" lon="5.63056">
        <ele>304.2</ele>
        <time>2013-04-10T08:49:15Z</time>
      </trkpt>
      <trkpt lat="43.4396" lon="5.63057">
        <ele>304.2</ele>
        <time>2013-04-10T08:49:16Z</time>
      </trkpt>
      <trkpt lat="43.43974" lon="5.63062">
        <ele>306.1</ele>
        <time>2013-04-10T08:49:30Z</time>
      </trkpt>
      <trkpt lat="43.43983" lon="5.63063">
        <ele>305.8</ele>
        <time>2013-04-10T08:49:39Z</time>
      </trkpt>
      <trkpt lat="43.43991" lon="5.63061">
        <ele>306</ele>
        <time>2013-04-10T08:49:46Z</time>
      </trkpt>
      <trkpt lat="43.43999" lon="5.63056">
        <ele>306.3</ele>
        <time>2013-04-10T08:49:56Z</time>
      </trkpt>
      <trkpt lat="43.44001" lon="5.63045">
        <ele>311.2</ele>
        <time>2013-04-10T08:50:09Z</time>
      </trkpt>
      <trkpt lat="43.43997" lon="5.63034">
        <ele>315</ele>
        <time>2013-04-10T08:50:19Z</time>
      </trkpt>
      <trkpt lat="43.43996" lon="5.63034">
        <ele>315.3</ele>
        <time>2013-04-10T08:50:20Z</time>
      </trkpt>
      <trkpt lat="43.43983" lon="5.63021">
        <ele>317.5</ele>
        <time>2013-04-10T08:50:41Z</time>
      </trkpt>
      <trkpt lat="43.43977" lon="5.63015">
        <ele>319.8</ele>
        <time>2013-04-10T08:50:51Z</time>
      </trkpt>
      <trkpt lat="43.4397" lon="5.63006">
        <ele>324</ele>
        <time>2013-04-10T08:51:00Z</time>
      </trkpt>
      <trkpt lat="43.43963" lon="5.63">
        <ele>327.3</ele>
        <time>2013-04-10T08:51:13Z</time>
      </trkpt>
      <trkpt lat="43.43956" lon="5.62993">
        <ele>326.5</ele>
        <time>2013-04-10T08:51:21Z</time>
      </trkpt>
      <trkpt lat="43.43956" lon="5.62992">
        <ele>326</ele>
        <time>2013-04-10T08:51:22Z</time>
      </trkpt>
      <trkpt lat="43.43942" lon="5.62981">
        <ele>329</ele>
        <time>2013-04-10T08:51:37Z</time>
      </trkpt>
      <trkpt lat="43.43941" lon="5.6297">
        <ele>324.7</ele>
        <time>2013-04-10T08:51:48Z</time>
      </trkpt>
      <trkpt lat="43.43943" lon="5.62958">
        <ele>328.6</ele>
        <time>2013-04-10T08:51:58Z</time>
      </trkpt>
      <trkpt lat="43.43943" lon="5.62946">
        <ele>325.3</ele>
        <time>2013-04-10T08:52:09Z</time>
      </trkpt>
      <trkpt lat="43.43943" lon="5.62934">
        <ele>325.7</ele>
        <time>2013-04-10T08:52:21Z</time>
      </trkpt>
      <trkpt lat="43.43942" lon="5.62922">
        <ele>325</ele>
        <time>2013-04-10T08:52:29Z</time>
      </trkpt>
      <trkpt lat="43.43942" lon="5.62921">
        <ele>325.8</ele>
        <time>2013-04-10T08:52:30Z</time>
      </trkpt>
      <trkpt lat="43.4394" lon="5.629">
        <ele>335.1</ele>
        <time>2013-04-10T08:52:44Z</time>
      </trkpt>
      <trkpt lat="43.43938" lon="5.62888">
        <ele>337</ele>
        <time>2013-04-10T08:52:55Z</time>
      </trkpt>
      <trkpt lat="43.43938" lon="5.62877">
        <ele>338.7</ele>
        <time>2013-04-10T08:53:04Z</time>
      </trkpt>
      <trkpt lat="43.43937" lon="5.62865">
        <ele>334.8</ele>
        <time>2013-04-10T08:53:17Z</time>
      </trkpt>
      <trkpt lat="43.43929" lon="5.62859">
        <ele>340.3</ele>
        <time>2013-04-10T08:53:30Z</time>
      </trkpt>
      <trkpt lat="43.43928" lon="5.62859">
        <ele>340.7</ele>
        <time>2013-04-10T08:53:31Z</time>
      </trkpt>
      <trkpt lat="43.43919" lon="5.62842">
        <ele>340.5</ele>
        <time>2013-04-10T08:53:48Z</time>
      </trkpt>
      <trkpt lat="43.43922" lon="5.62831">
        <ele>332.8</ele>
        <time>2013-04-10T08:53:58Z</time>
      </trkpt>
      <trkpt lat="43.43927" lon="5.62821">
        <ele>330.7</ele>
        <time>2013-04-10T08:54:09Z</time>
      </trkpt>
      <trkpt lat="43.43934" lon="5.62815">
        <ele>326.5</ele>
        <time>2013-04-10T08:54:19Z</time>
      </trkpt>
      <trkpt lat="43.43938" lon="5.62805">
        <ele>330.7</ele>
        <time>2013-04-10T08:54:29Z</time>
      </trkpt>
      <trkpt lat="43.43945" lon="5.62798">
        <ele>331.7</ele>
        <time>2013-04-10T08:54:38Z</time>
      </trkpt>
      <trkpt lat="43.43946" lon="5.62797">
        <ele>331.7</ele>
        <time>2013-04-10T08:54:39Z</time>
      </trkpt>
      <trkpt lat="43.43953" lon="5.62777">
        <ele>331.5</ele>
        <time>2013-04-10T08:54:56Z</time>
      </trkpt>
      <trkpt lat="43.4396" lon="5.6277">
        <ele>335.3</ele>
        <time>2013-04-10T08:55:06Z</time>
      </trkpt>
      <trkpt lat="43.43968" lon="5.62765">
        <ele>336.6</ele>
        <time>2013-04-10T08:55:16Z</time>
      </trkpt>
      <trkpt lat="43.43976" lon="5.62759">
        <ele>334.1</ele>
        <time>2013-04-10T08:55:26Z</time>
      </trkpt>
      <trkpt lat="43.43983" lon="5.62753">
        <ele>336.3</ele>
        <time>2013-04-10T08:55:34Z</time>
      </trkpt>
      <trkpt lat="43.43991" lon="5.62748">
        <ele>337.8</ele>
        <time>2013-04-10T08:55:44Z</time>
      </trkpt>
      <trkpt lat="43.43992" lon="5.62747">
        <ele>338.3</ele>
        <time>2013-04-10T08:55:45Z</time>
      </trkpt>
      <trkpt lat="43.44006" lon="5.62747">
        <ele>341.3</ele>
        <time>2013-04-10T08:55:59Z</time>
      </trkpt>
      <trkpt lat="43.44015" lon="5.62746">
        <ele>340.6</ele>
        <time>2013-04-10T08:56:05Z</time>
      </trkpt>
      <trkpt lat="43.44023" lon="5.62744">
        <ele>339.2</ele>
        <time>2013-04-10T08:56:14Z</time>
      </trkpt>
      <trkpt lat="43.44031" lon="5.62743">
        <ele>338.7</ele>
        <time>2013-04-10T08:56:21Z</time>
      </trkpt>
      <trkpt lat="43.4404" lon="5.62741">
        <ele>336.7</ele>
        <time>2013-04-10T08:56:29Z</time>
      </trkpt>
      <trkpt lat="43.44048" lon="5.62741">
        <ele>334.7</ele>
        <time>2013-04-10T08:56:37Z</time>
      </trkpt>
      <trkpt lat="43.44056" lon="5.62743">
        <ele>336.3</ele>
        <time>2013-04-10T08:56:45Z</time>
      </trkpt>
      <trkpt lat="43.44057" lon="5.62744">
        <ele>336.3</ele>
        <time>2013-04-10T08:56:46Z</time>
      </trkpt>
      <trkpt lat="43.44072" lon="5.62754">
        <ele>336.7</ele>
        <time>2013-04-10T08:57:01Z</time>
      </trkpt>
      <trkpt lat="43.44077" lon="5.62761">
        <ele>335.6</ele>
        <time>2013-04-10T08:57:08Z</time>
      </trkpt>
      <trkpt lat="43.44084" lon="5.62769">
        <ele>335.2</ele>
        <time>2013-04-10T08:57:15Z</time>
      </trkpt>
      <trkpt lat="43.44092" lon="5.62773">
        <ele>334.7</ele>
        <time>2013-04-10T08:57:24Z</time>
      </trkpt>
      <trkpt lat="43.441" lon="5.62776">
        <ele>334.7</ele>
        <time>2013-04-10T08:57:34Z</time>
      </trkpt>
      <trkpt lat="43.44108" lon="5.62778">
        <ele>331.7</ele>
        <time>2013-04-10T08:57:40Z</time>
      </trkpt>
      <trkpt lat="43.44116" lon="5.62784">
        <ele>330.1</ele>
        <time>2013-04-10T08:57:47Z</time>
      </trkpt>
      <trkpt lat="43.44117" lon="5.62785">
        <ele>330.1</ele>
        <time>2013-04-10T08:57:48Z</time>
      </trkpt>
      <trkpt lat="43.4413" lon="5.62797">
        <ele>333.6</ele>
        <time>2013-04-10T08:58:01Z</time>
      </trkpt>
      <trkpt lat="43.44135" lon="5.62806">
        <ele>336.1</ele>
        <time>2013-04-10T08:58:09Z</time>
      </trkpt>
      <trkpt lat="43.44139" lon="5.62817">
        <ele>340.1</ele>
        <time>2013-04-10T08:58:16Z</time>
      </trkpt>
      <trkpt lat="43.44144" lon="5.62826">
        <ele>339.3</ele>
        <time>2013-04-10T08:58:23Z</time>
      </trkpt>
      <trkpt lat="43.4415" lon="5.62834">
        <ele>337.2</ele>
        <time>2013-04-10T08:58:29Z</time>
      </trkpt>
      <trkpt lat="43.44157" lon="5.62842">
        <ele>336.2</ele>
        <time>2013-04-10T08:58:36Z</time>
      </trkpt>
      <trkpt lat="43.44163" lon="5.62849">
        <ele>331.8</ele>
        <time>2013-04-10T08:58:43Z</time>
      </trkpt>
      <trkpt lat="43.44171" lon="5.62853">
        <ele>328</ele>
        <time>2013-04-10T08:58:50Z</time>
      </trkpt>
      <trkpt lat="43.44172" lon="5.62853">
        <ele>327.2</ele>
        <time>2013-04-10T08:58:51Z</time>
      </trkpt>
      <trkpt lat="43.44182" lon="5.62838">
        <ele>321.7</ele>
        <time>2013-04-10T08:59:13Z</time>
      </trkpt>
      <trkpt lat="43.44186" lon="5.62828">
        <ele>319.5</ele>
        <time>2013-04-10T08:59:20Z</time>
      </trkpt>
      <trkpt lat="43.4419" lon="5.62817">
        <ele>316.7</ele>
        <time>2013-04-10T08:59:28Z</time>
      </trkpt>
      <trkpt lat="43.44195" lon="5.62807">
        <ele>314.8</ele>
        <time>2013-04-10T08:59:35Z</time>
      </trkpt>
      <trkpt lat="43.44199" lon="5.62796">
        <ele>315.2</ele>
        <time>2013-04-10T08:59:42Z</time>
      </trkpt>
      <trkpt lat="43.44202" lon="5.62785">
        <ele>320.8</ele>
        <time>2013-04-10T08:59:54Z</time>
      </trkpt>
      <trkpt lat="43.44202" lon="5.62784">
        <ele>321.7</ele>
        <time>2013-04-10T08:59:55Z</time>
      </trkpt>
      <trkpt lat="43.44208" lon="5.62763">
        <ele>321.5</ele>
        <time>2013-04-10T09:00:09Z</time>
      </trkpt>
      <trkpt lat="43.44211" lon="5.62752">
        <ele>321.5</ele>
        <time>2013-04-10T09:00:16Z</time>
      </trkpt>
      <trkpt lat="43.44213" lon="5.62741">
        <ele>320.7</ele>
        <time>2013-04-10T09:00:29Z</time>
      </trkpt>
      <trkpt lat="43.44215" lon="5.6273">
        <ele>316.6</ele>
        <time>2013-04-10T09:00:48Z</time>
      </trkpt>
      <trkpt lat="43.44218" lon="5.62719">
        <ele>318.6</ele>
        <time>2013-04-10T09:00:58Z</time>
      </trkpt>
      <trkpt lat="43.44218" lon="5.62718">
        <ele>319</ele>
        <time>2013-04-10T09:00:59Z</time>
      </trkpt>
      <trkpt lat="43.44225" lon="5.62713">
        <ele>319.5</ele>
        <time>2013-04-10T09:02:12Z</time>
      </trkpt>
      <trkpt lat="43.44226" lon="5.62711">
        <ele>318.6</ele>
        <time>2013-04-10T09:02:13Z</time>
      </trkpt>
      <trkpt lat="43.44232" lon="5.62692">
        <ele>314.8</ele>
        <time>2013-04-10T09:02:28Z</time>
      </trkpt>
      <trkpt lat="43.44236" lon="5.62681">
        <ele>313.7</ele>
        <time>2013-04-10T09:02:37Z</time>
      </trkpt>
      <trkpt lat="43.44239" lon="5.6267">
        <ele>315.1</ele>
        <time>2013-04-10T09:02:45Z</time>
      </trkpt>
      <trkpt lat="43.44242" lon="5.62658">
        <ele>314.1</ele>
        <time>2013-04-10T09:02:53Z</time>
      </trkpt>
      <trkpt lat="43.44244" lon="5.62647">
        <ele>316.1</ele>
        <time>2013-04-10T09:03:00Z</time>
      </trkpt>
      <trkpt lat="43.44248" lon="5.62636">
        <ele>317.5</ele>
        <time>2013-04-10T09:03:08Z</time>
      </trkpt>
      <trkpt lat="43.44252" lon="5.62626">
        <ele>320.1</ele>
        <time>2013-04-10T09:03:15Z</time>
      </trkpt>
      <trkpt lat="43.44253" lon="5.62625">
        <ele>320.2</ele>
        <time>2013-04-10T09:03:16Z</time>
      </trkpt>
      <trkpt lat="43.44265" lon="5.62612">
        <ele>323</ele>
        <time>2013-04-10T09:03:31Z</time>
      </trkpt>
      <trkpt lat="43.44273" lon="5.6261">
        <ele>324.5</ele>
        <time>2013-04-10T09:03:39Z</time>
      </trkpt>
      <trkpt lat="43.44281" lon="5.62609">
        <ele>325.3</ele>
        <time>2013-04-10T09:03:46Z</time>
      </trkpt>
      <trkpt lat="43.44289" lon="5.62608">
        <ele>324.2</ele>
        <time>2013-04-10T09:03:54Z</time>
      </trkpt>
      <trkpt lat="43.44297" lon="5.62609">
        <ele>323.6</ele>
        <time>2013-04-10T09:04:01Z</time>
      </trkpt>
      <trkpt lat="43.44306" lon="5.62607">
        <ele>322.1</ele>
        <time>2013-04-10T09:04:09Z</time>
      </trkpt>
      <trkpt lat="43.44314" lon="5.62606">
        <ele>322</ele>
        <time>2013-04-10T09:04:18Z</time>
      </trkpt>
      <trkpt lat="43.44315" lon="5.62606">
        <ele>321.7</ele>
        <time>2013-04-10T09:04:19Z</time>
      </trkpt>
      <trkpt lat="43.44331" lon="5.62603">
        <ele>321</ele>
        <time>2013-04-10T09:04:34Z</time>
      </trkpt>
      <trkpt lat="43.44339" lon="5.62604">
        <ele>321.7</ele>
        <time>2013-04-10T09:04:40Z</time>
      </trkpt>
      <trkpt lat="43.44346" lon="5.62607">
        <ele>322.6</ele>
        <time>2013-04-10T09:04:46Z</time>
      </trkpt>
      <trkpt lat="43.44354" lon="5.62611">
        <ele>322.3</ele>
        <time>2013-04-10T09:04:52Z</time>
      </trkpt>
      <trkpt lat="43.44361" lon="5.62616">
        <ele>322.2</ele>
        <time>2013-04-10T09:04:59Z</time>
      </trkpt>
      <trkpt lat="43.44368" lon="5.62621">
        <ele>322.2</ele>
        <time>2013-04-10T09:05:05Z</time>
      </trkpt>
      <trkpt lat="43.44376" lon="5.62624">
        <ele>321.2</ele>
        <time>2013-04-10T09:05:11Z</time>
      </trkpt>
      <trkpt lat="43.44384" lon="5.62622">
        <ele>318.3</ele>
        <time>2013-04-10T09:05:20Z</time>
      </trkpt>
      <trkpt lat="43.44385" lon="5.62621">
        <ele>318</ele>
        <time>2013-04-10T09:05:21Z</time>
      </trkpt>
      <trkpt lat="43.444" lon="5.62614">
        <ele>315.2</ele>
        <time>2013-04-10T09:05:34Z</time>
      </trkpt>
      <trkpt lat="43.44408" lon="5.6261">
        <ele>314.7</ele>
        <time>2013-04-10T09:05:42Z</time>
      </trkpt>
      <trkpt lat="43.44416" lon="5.62606">
        <ele>314.3</ele>
        <time>2013-04-10T09:05:49Z</time>
      </trkpt>
      <trkpt lat="43.44424" lon="5.62603">
        <ele>313.7</ele>
        <time>2013-04-10T09:05:55Z</time>
      </trkpt>
      <trkpt lat="43.44432" lon="5.626">
        <ele>313.2</ele>
        <time>2013-04-10T09:06:02Z</time>
      </trkpt>
      <trkpt lat="43.4444" lon="5.62595">
        <ele>312.5</ele>
        <time>2013-04-10T09:06:10Z</time>
      </trkpt>
      <trkpt lat="43.44447" lon="5.62591">
        <ele>312.7</ele>
        <time>2013-04-10T09:06:16Z</time>
      </trkpt>
      <trkpt lat="43.44455" lon="5.62585">
        <ele>313</ele>
        <time>2013-04-10T09:06:23Z</time>
      </trkpt>
      <trkpt lat="43.44456" lon="5.62584">
        <ele>312.7</ele>
        <time>2013-04-10T09:06:24Z</time>
      </trkpt>
      <trkpt lat="43.44469" lon="5.62573">
        <ele>311.3</ele>
        <time>2013-04-10T09:06:37Z</time>
      </trkpt>
      <trkpt lat="43.44476" lon="5.62567">
        <ele>311.1</ele>
        <time>2013-04-10T09:06:44Z</time>
      </trkpt>
      <trkpt lat="43.44483" lon="5.62562">
        <ele>309.2</ele>
        <time>2013-04-10T09:06:50Z</time>
      </trkpt>
      <trkpt lat="43.4449" lon="5.62555">
        <ele>308.7</ele>
        <time>2013-04-10T09:06:58Z</time>
      </trkpt>
      <trkpt lat="43.44498" lon="5.6255">
        <ele>308.7</ele>
        <time>2013-04-10T09:07:06Z</time>
      </trkpt>
      <trkpt lat="43.44505" lon="5.62544">
        <ele>309</ele>
        <time>2013-04-10T09:07:13Z</time>
      </trkpt>
      <trkpt lat="43.44511" lon="5.62536">
        <ele>310.2</ele>
        <time>2013-04-10T09:07:21Z</time>
      </trkpt>
      <trkpt lat="43.44519" lon="5.62531">
        <ele>310.1</ele>
        <time>2013-04-10T09:07:30Z</time>
      </trkpt>
      <trkpt lat="43.44519" lon="5.6253">
        <ele>309.8</ele>
        <time>2013-04-10T09:07:31Z</time>
      </trkpt>
      <trkpt lat="43.44533" lon="5.62516">
        <ele>307.8</ele>
        <time>2013-04-10T09:08:30Z</time>
      </trkpt>
      <trkpt lat="43.4454" lon="5.62511">
        <ele>309.5</ele>
        <time>2013-04-10T09:08:38Z</time>
      </trkpt>
      <trkpt lat="43.44541" lon="5.6251">
        <ele>309.2</ele>
        <time>2013-04-10T09:08:39Z</time>
      </trkpt>
      <trkpt lat="43.44554" lon="5.62498">
        <ele>307.5</ele>
        <time>2013-04-10T09:08:52Z</time>
      </trkpt>
      <trkpt lat="43.44561" lon="5.62492">
        <ele>307.2</ele>
        <time>2013-04-10T09:09:02Z</time>
      </trkpt>
      <trkpt lat="43.44568" lon="5.62484">
        <ele>303.2</ele>
        <time>2013-04-10T09:09:08Z</time>
      </trkpt>
      <trkpt lat="43.44576" lon="5.6248">
        <ele>302.5</ele>
        <time>2013-04-10T09:09:13Z</time>
      </trkpt>
      <trkpt lat="43.44583" lon="5.62475">
        <ele>299.8</ele>
        <time>2013-04-10T09:09:21Z</time>
      </trkpt>
      <trkpt lat="43.44592" lon="5.62472">
        <ele>299.5</ele>
        <time>2013-04-10T09:09:28Z</time>
      </trkpt>
      <trkpt lat="43.446" lon="5.62472">
        <ele>301</ele>
        <time>2013-04-10T09:09:36Z</time>
      </trkpt>
      <trkpt lat="43.44609" lon="5.62474">
        <ele>302.3</ele>
        <time>2013-04-10T09:09:45Z</time>
      </trkpt>
      <trkpt lat="43.44609" lon="5.62474">
        <ele>302.6</ele>
        <time>2013-04-10T09:09:46Z</time>
      </trkpt>
      <trkpt lat="43.44625" lon="5.6247">
        <ele>301.3</ele>
        <time>2013-04-10T09:10:24Z</time>
      </trkpt>
      <trkpt lat="43.44634" lon="5.62474">
        <ele>300.6</ele>
        <time>2013-04-10T09:10:33Z</time>
      </trkpt>
      <trkpt lat="43.44642" lon="5.62476">
        <ele>300.3</ele>
        <time>2013-04-10T09:10:41Z</time>
      </trkpt>
      <trkpt lat="43.4465" lon="5.6248">
        <ele>300.6</ele>
        <time>2013-04-10T09:10:49Z</time>
      </trkpt>
      <trkpt lat="43.44651" lon="5.6248">
        <ele>300.7</ele>
        <time>2013-04-10T09:10:50Z</time>
      </trkpt>
      <trkpt lat="43.44667" lon="5.62483">
        <ele>301.2</ele>
        <time>2013-04-10T09:11:06Z</time>
      </trkpt>
      <trkpt lat="43.44675" lon="5.6248">
        <ele>300.8</ele>
        <time>2013-04-10T09:11:15Z</time>
      </trkpt>
      <trkpt lat="43.44679" lon="5.62469">
        <ele>301.6</ele>
        <time>2013-04-10T09:11:23Z</time>
      </trkpt>
      <trkpt lat="43.44686" lon="5.62462">
        <ele>300.6</ele>
        <time>2013-04-10T09:11:34Z</time>
      </trkpt>
      <trkpt lat="43.44695" lon="5.62459">
        <ele>299.2</ele>
        <time>2013-04-10T09:11:42Z</time>
      </trkpt>
      <trkpt lat="43.44702" lon="5.62452">
        <ele>297.1</ele>
        <time>2013-04-10T09:11:49Z</time>
      </trkpt>
      <trkpt lat="43.44707" lon="5.62443">
        <ele>295.2</ele>
        <time>2013-04-10T09:12:00Z</time>
      </trkpt>
      <trkpt lat="43.44708" lon="5.62442">
        <ele>295</ele>
        <time>2013-04-10T09:12:01Z</time>
      </trkpt>
      <trkpt lat="43.44717" lon="5.62425">
        <ele>296.7</ele>
        <time>2013-04-10T09:12:21Z</time>
      </trkpt>
      <trkpt lat="43.44717" lon="5.62413">
        <ele>297.2</ele>
        <time>2013-04-10T09:12:32Z</time>
      </trkpt>
      <trkpt lat="43.44719" lon="5.62402">
        <ele>296.6</ele>
        <time>2013-04-10T09:12:43Z</time>
      </trkpt>
      <trkpt lat="43.44719" lon="5.6239">
        <ele>296.2</ele>
        <time>2013-04-10T09:12:57Z</time>
      </trkpt>
      <trkpt lat="43.44725" lon="5.62381">
        <ele>291.5</ele>
        <time>2013-04-10T09:13:17Z</time>
      </trkpt>
      <trkpt lat="43.44725" lon="5.6238">
        <ele>291.2</ele>
        <time>2013-04-10T09:13:18Z</time>
      </trkpt>
      <trkpt lat="43.44728" lon="5.62358">
        <ele>288.8</ele>
        <time>2013-04-10T09:13:38Z</time>
      </trkpt>
      <trkpt lat="43.44729" lon="5.62347">
        <ele>287.8</ele>
        <time>2013-04-10T09:13:50Z</time>
      </trkpt>
      <trkpt lat="43.4473" lon="5.62335">
        <ele>286</ele>
        <time>2013-04-10T09:13:59Z</time>
      </trkpt>
      <trkpt lat="43.44731" lon="5.62324">
        <ele>283.2</ele>
        <time>2013-04-10T09:14:11Z</time>
      </trkpt>
      <trkpt lat="43.44735" lon="5.62314">
        <ele>279.7</ele>
        <time>2013-04-10T09:14:23Z</time>
      </trkpt>
      <trkpt lat="43.44736" lon="5.62313">
        <ele>279.7</ele>
        <time>2013-04-10T09:14:24Z</time>
      </trkpt>
      <trkpt lat="43.44743" lon="5.62293">
        <ele>277.7</ele>
        <time>2013-04-10T09:14:38Z</time>
      </trkpt>
      <trkpt lat="43.44747" lon="5.62284">
        <ele>279.1</ele>
        <time>2013-04-10T09:14:44Z</time>
      </trkpt>
      <trkpt lat="43.44748" lon="5.62272">
        <ele>278.8</ele>
        <time>2013-04-10T09:14:52Z</time>
      </trkpt>
      <trkpt lat="43.44751" lon="5.62261">
        <ele>278.2</ele>
        <time>2013-04-10T09:15:00Z</time>
      </trkpt>
      <trkpt lat="43.44754" lon="5.6225">
        <ele>279.8</ele>
        <time>2013-04-10T09:15:08Z</time>
      </trkpt>
      <trkpt lat="43.44751" lon="5.62238">
        <ele>282.7</ele>
        <time>2013-04-10T09:15:17Z</time>
      </trkpt>
      <trkpt lat="43.44757" lon="5.62247">
        <ele>285.7</ele>
        <time>2013-04-10T09:16:40Z</time>
      </trkpt>
      <trkpt lat="43.44758" lon="5.62247">
        <ele>285.5</ele>
        <time>2013-04-10T09:16:41Z</time>
      </trkpt>
      <trkpt lat="43.44771" lon="5.62237">
        <ele>281.6</ele>
        <time>2013-04-10T09:17:49Z</time>
      </trkpt>
      <trkpt lat="43.44772" lon="5.62236">
        <ele>281.2</ele>
        <time>2013-04-10T09:17:50Z</time>
      </trkpt>
      <trkpt lat="43.44778" lon="5.62217">
        <ele>280</ele>
        <time>2013-04-10T09:18:04Z</time>
      </trkpt>
      <trkpt lat="43.44782" lon="5.62207">
        <ele>280.1</ele>
        <time>2013-04-10T09:18:11Z</time>
      </trkpt>
      <trkpt lat="43.44786" lon="5.62197">
        <ele>280.3</ele>
        <time>2013-04-10T09:18:18Z</time>
      </trkpt>
      <trkpt lat="43.4479" lon="5.62185">
        <ele>280.8</ele>
        <time>2013-04-10T09:18:26Z</time>
      </trkpt>
      <trkpt lat="43.44794" lon="5.62175">
        <ele>282.6</ele>
        <time>2013-04-10T09:18:34Z</time>
      </trkpt>
      <trkpt lat="43.44795" lon="5.62163">
        <ele>282.5</ele>
        <time>2013-04-10T09:18:42Z</time>
      </trkpt>
      <trkpt lat="43.44797" lon="5.62152">
        <ele>282.2</ele>
        <time>2013-04-10T09:18:50Z</time>
      </trkpt>
      <trkpt lat="43.44797" lon="5.6215">
        <ele>282</ele>
        <time>2013-04-10T09:18:51Z</time>
      </trkpt>
      <trkpt lat="43.44805" lon="5.62129">
        <ele>282.7</ele>
        <time>2013-04-10T09:19:06Z</time>
      </trkpt>
      <trkpt lat="43.44809" lon="5.6212">
        <ele>281.7</ele>
        <time>2013-04-10T09:19:13Z</time>
      </trkpt>
      <trkpt lat="43.44814" lon="5.6211">
        <ele>281.8</ele>
        <time>2013-04-10T09:19:20Z</time>
      </trkpt>
      <trkpt lat="43.44819" lon="5.62101">
        <ele>281.3</ele>
        <time>2013-04-10T09:19:28Z</time>
      </trkpt>
      <trkpt lat="43.44823" lon="5.62092">
        <ele>280.8</ele>
        <time>2013-04-10T09:19:35Z</time>
      </trkpt>
      <trkpt lat="43.44827" lon="5.62082">
        <ele>280.6</ele>
        <time>2013-04-10T09:19:42Z</time>
      </trkpt>
      <trkpt lat="43.44833" lon="5.62074">
        <ele>280.7</ele>
        <time>2013-04-10T09:19:49Z</time>
      </trkpt>
      <trkpt lat="43.44839" lon="5.62066">
        <ele>281</ele>
        <time>2013-04-10T09:19:56Z</time>
      </trkpt>
      <trkpt lat="43.4484" lon="5.62066">
        <ele>281</ele>
        <time>2013-04-10T09:19:57Z</time>
      </trkpt>
      <trkpt lat="43.44855" lon="5.62058">
        <ele>281.3</ele>
        <time>2013-04-10T09:20:11Z</time>
      </trkpt>
      <trkpt lat="43.44863" lon="5.62055">
        <ele>281.1</ele>
        <time>2013-04-10T09:20:18Z</time>
      </trkpt>
      <trkpt lat="43.44871" lon="5.6205">
        <ele>281.2</ele>
        <time>2013-04-10T09:20:25Z</time>
      </trkpt>
      <trkpt lat="43.44879" lon="5.62045">
        <ele>281.2</ele>
        <time>2013-04-10T09:20:33Z</time>
      </trkpt>
      <trkpt lat="43.44886" lon="5.62038">
        <ele>281.2</ele>
        <time>2013-04-10T09:20:40Z</time>
      </trkpt>
      <trkpt lat="43.44894" lon="5.62032">
        <ele>281.2</ele>
        <time>2013-04-10T09:20:47Z</time>
      </trkpt>
      <trkpt lat="43.449" lon="5.62026">
        <ele>281</ele>
        <time>2013-04-10T09:20:54Z</time>
      </trkpt>
      <trkpt lat="43.44907" lon="5.62019">
        <ele>282.2</ele>
        <time>2013-04-10T09:21:02Z</time>
      </trkpt>
      <trkpt lat="43.44907" lon="5.62018">
        <ele>282.1</ele>
        <time>2013-04-10T09:21:03Z</time>
      </trkpt>
      <trkpt lat="43.44921" lon="5.62008">
        <ele>284.2</ele>
        <time>2013-04-10T09:21:17Z</time>
      </trkpt>
      <trkpt lat="43.44928" lon="5.62002">
        <ele>282.1</ele>
        <time>2013-04-10T09:21:26Z</time>
      </trkpt>
      <trkpt lat="43.44937" lon="5.61999">
        <ele>279.8</ele>
        <time>2013-04-10T09:21:35Z</time>
      </trkpt>
      <trkpt lat="43.44944" lon="5.62001">
        <ele>279.3</ele>
        <time>2013-04-10T09:21:42Z</time>
      </trkpt>
      <trkpt lat="43.44953" lon="5.61998">
        <ele>279.3</ele>
        <time>2013-04-10T09:21:50Z</time>
      </trkpt>
      <trkpt lat="43.44961" lon="5.61997">
        <ele>279.2</ele>
        <time>2013-04-10T09:21:58Z</time>
      </trkpt>
      <trkpt lat="43.44969" lon="5.61993">
        <ele>277.7</ele>
        <time>2013-04-10T09:22:07Z</time>
      </trkpt>
      <trkpt lat="43.4497" lon="5.61993">
        <ele>277.2</ele>
        <time>2013-04-10T09:22:08Z</time>
      </trkpt>
      <trkpt lat="43.44985" lon="5.61984">
        <ele>275.7</ele>
        <time>2013-04-10T09:22:24Z</time>
      </trkpt>
      <trkpt lat="43.44992" lon="5.61977">
        <ele>278</ele>
        <time>2013-04-10T09:22:29Z</time>
      </trkpt>
      <trkpt lat="43.44993" lon="5.61965">
        <ele>276.7</ele>
        <time>2013-04-10T09:22:37Z</time>
      </trkpt>
      <trkpt lat="43.44992" lon="5.61953">
        <ele>274.6</ele>
        <time>2013-04-10T09:22:44Z</time>
      </trkpt>
      <trkpt lat="43.44993" lon="5.61942">
        <ele>275.5</ele>
        <time>2013-04-10T09:22:51Z</time>
      </trkpt>
      <trkpt lat="43.44994" lon="5.61931">
        <ele>275.1</ele>
        <time>2013-04-10T09:22:59Z</time>
      </trkpt>
      <trkpt lat="43.44996" lon="5.6192">
        <ele>270</ele>
        <time>2013-04-10T09:23:07Z</time>
      </trkpt>
      <trkpt lat="43.44996" lon="5.61909">
        <ele>270.1</ele>
        <time>2013-04-10T09:23:13Z</time>
      </trkpt>
      <trkpt lat="43.44995" lon="5.61907">
        <ele>270.5</ele>
        <time>2013-04-10T09:23:14Z</time>
      </trkpt>
      <trkpt lat="43.44998" lon="5.61886">
        <ele>269.2</ele>
        <time>2013-04-10T09:23:26Z</time>
      </trkpt>
      <trkpt lat="43.45001" lon="5.61875">
        <ele>270.2</ele>
        <time>2013-04-10T09:23:34Z</time>
      </trkpt>
      <trkpt lat="43.45001" lon="5.61863">
        <ele>268.8</ele>
        <time>2013-04-10T09:23:41Z</time>
      </trkpt>
      <trkpt lat="43.45004" lon="5.61853">
        <ele>270.2</ele>
        <time>2013-04-10T09:23:49Z</time>
      </trkpt>
      <trkpt lat="43.45009" lon="5.61842">
        <ele>271.8</ele>
        <time>2013-04-10T09:23:57Z</time>
      </trkpt>
      <trkpt lat="43.45013" lon="5.61832">
        <ele>274.3</ele>
        <time>2013-04-10T09:24:04Z</time>
      </trkpt>
      <trkpt lat="43.45013" lon="5.61821">
        <ele>276.7</ele>
        <time>2013-04-10T09:24:13Z</time>
      </trkpt>
      <trkpt lat="43.45009" lon="5.6181">
        <ele>277</ele>
        <time>2013-04-10T09:24:20Z</time>
      </trkpt>
      <trkpt lat="43.45009" lon="5.61809">
        <ele>276.7</ele>
        <time>2013-04-10T09:24:21Z</time>
      </trkpt>
      <trkpt lat="43.45006" lon="5.61788">
        <ele>278</ele>
        <time>2013-04-10T09:24:36Z</time>
      </trkpt>
      <trkpt lat="43.45005" lon="5.61776">
        <ele>279.5</ele>
        <time>2013-04-10T09:24:44Z</time>
      </trkpt>
      <trkpt lat="43.45003" lon="5.61764">
        <ele>283.1</ele>
        <time>2013-04-10T09:24:54Z</time>
      </trkpt>
      <trkpt lat="43.45003" lon="5.61752">
        <ele>284.5</ele>
        <time>2013-04-10T09:25:03Z</time>
      </trkpt>
      <trkpt lat="43.45005" lon="5.61741">
        <ele>283.3</ele>
        <time>2013-04-10T09:25:12Z</time>
      </trkpt>
      <trkpt lat="43.45007" lon="5.6173">
        <ele>281.2</ele>
        <time>2013-04-10T09:25:22Z</time>
      </trkpt>
      <trkpt lat="43.45008" lon="5.61729">
        <ele>280.7</ele>
        <time>2013-04-10T09:25:23Z</time>
      </trkpt>
      <trkpt lat="43.45013" lon="5.61707">
        <ele>279.2</ele>
        <time>2013-04-10T09:25:38Z</time>
      </trkpt>
      <trkpt lat="43.45016" lon="5.61697">
        <ele>280</ele>
        <time>2013-04-10T09:25:45Z</time>
      </trkpt>
      <trkpt lat="43.4502" lon="5.61687">
        <ele>277.7</ele>
        <time>2013-04-10T09:25:51Z</time>
      </trkpt>
      <trkpt lat="43.45023" lon="5.61676">
        <ele>269.2</ele>
        <time>2013-04-10T09:25:59Z</time>
      </trkpt>
      <trkpt lat="43.45025" lon="5.61664">
        <ele>262.1</ele>
        <time>2013-04-10T09:26:08Z</time>
      </trkpt>
      <trkpt lat="43.45025" lon="5.61652">
        <ele>260.7</ele>
        <time>2013-04-10T09:26:17Z</time>
      </trkpt>
      <trkpt lat="43.45025" lon="5.6164">
        <ele>263.7</ele>
        <time>2013-04-10T09:26:26Z</time>
      </trkpt>
      <trkpt lat="43.45024" lon="5.61639">
        <ele>263.2</ele>
        <time>2013-04-10T09:26:27Z</time>
      </trkpt>
      <trkpt lat="43.45024" lon="5.61618">
        <ele>261.2</ele>
        <time>2013-04-10T09:26:44Z</time>
      </trkpt>
      <trkpt lat="43.4502" lon="5.61607">
        <ele>260.6</ele>
        <time>2013-04-10T09:26:51Z</time>
      </trkpt>
      <trkpt lat="43.45017" lon="5.61597">
        <ele>266.6</ele>
        <time>2013-04-10T09:26:57Z</time>
      </trkpt>
      <trkpt lat="43.45012" lon="5.61587">
        <ele>273.2</ele>
        <time>2013-04-10T09:27:04Z</time>
      </trkpt>
      <trkpt lat="43.45008" lon="5.61577">
        <ele>275</ele>
        <time>2013-04-10T09:27:13Z</time>
      </trkpt>
      <trkpt lat="43.45007" lon="5.61565">
        <ele>272.2</ele>
        <time>2013-04-10T09:27:21Z</time>
      </trkpt>
      <trkpt lat="43.45007" lon="5.61554">
        <ele>272.3</ele>
        <time>2013-04-10T09:27:29Z</time>
      </trkpt>
      <trkpt lat="43.45006" lon="5.61552">
        <ele>272</ele>
        <time>2013-04-10T09:27:30Z</time>
      </trkpt>
      <trkpt lat="43.44999" lon="5.61533">
        <ele>276.2</ele>
        <time>2013-04-10T09:27:42Z</time>
      </trkpt>
      <trkpt lat="43.44999" lon="5.61521">
        <ele>279.2</ele>
        <time>2013-04-10T09:27:51Z</time>
      </trkpt>
      <trkpt lat="43.45" lon="5.61509">
        <ele>279.7</ele>
        <time>2013-04-10T09:28:00Z</time>
      </trkpt>
      <trkpt lat="43.45001" lon="5.61497">
        <ele>275.3</ele>
        <time>2013-04-10T09:28:08Z</time>
      </trkpt>
      <trkpt lat="43.45004" lon="5.61487">
        <ele>276.3</ele>
        <time>2013-04-10T09:28:17Z</time>
      </trkpt>
      <trkpt lat="43.45005" lon="5.61475">
        <ele>276</ele>
        <time>2013-04-10T09:28:29Z</time>
      </trkpt>
      <trkpt lat="43.45001" lon="5.61464">
        <ele>278.7</ele>
        <time>2013-04-10T09:28:37Z</time>
      </trkpt>
      <trkpt lat="43.45001" lon="5.61463">
        <ele>279.1</ele>
        <time>2013-04-10T09:28:38Z</time>
      </trkpt>
      <trkpt lat="43.44991" lon="5.61444">
        <ele>280</ele>
        <time>2013-04-10T09:28:49Z</time>
      </trkpt>
      <trkpt lat="43.44987" lon="5.61433">
        <ele>280.6</ele>
        <time>2013-04-10T09:28:55Z</time>
      </trkpt>
      <trkpt lat="43.44985" lon="5.61421">
        <ele>284.7</ele>
        <time>2013-04-10T09:29:04Z</time>
      </trkpt>
      <trkpt lat="43.44991" lon="5.61412">
        <ele>288.1</ele>
        <time>2013-04-10T09:29:19Z</time>
      </trkpt>
      <trkpt lat="43.44998" lon="5.61408">
        <ele>290.1</ele>
        <time>2013-04-10T09:29:31Z</time>
      </trkpt>
      <trkpt lat="43.45001" lon="5.61397">
        <ele>289.8</ele>
        <time>2013-04-10T09:29:49Z</time>
      </trkpt>
      <trkpt lat="43.45001" lon="5.61396">
        <ele>290</ele>
        <time>2013-04-10T09:29:50Z</time>
      </trkpt>
      <trkpt lat="43.44993" lon="5.61378">
        <ele>290.5</ele>
        <time>2013-04-10T09:30:07Z</time>
      </trkpt>
      <trkpt lat="43.44987" lon="5.61369">
        <ele>292.8</ele>
        <time>2013-04-10T09:30:13Z</time>
      </trkpt>
      <trkpt lat="43.44983" lon="5.61359">
        <ele>293.1</ele>
        <time>2013-04-10T09:30:21Z</time>
      </trkpt>
      <trkpt lat="43.4498" lon="5.61349">
        <ele>294.1</ele>
        <time>2013-04-10T09:30:28Z</time>
      </trkpt>
      <trkpt lat="43.44975" lon="5.61339">
        <ele>295.7</ele>
        <time>2013-04-10T09:30:35Z</time>
      </trkpt>
      <trkpt lat="43.44972" lon="5.61328">
        <ele>295.2</ele>
        <time>2013-04-10T09:30:44Z</time>
      </trkpt>
      <trkpt lat="43.44969" lon="5.61318">
        <ele>295.5</ele>
        <time>2013-04-10T09:30:52Z</time>
      </trkpt>
      <trkpt lat="43.44969" lon="5.61316">
        <ele>295.7</ele>
        <time>2013-04-10T09:30:53Z</time>
      </trkpt>
      <trkpt lat="43.44962" lon="5.61296">
        <ele>297.7</ele>
        <time>2013-04-10T09:31:04Z</time>
      </trkpt>
      <trkpt lat="43.44959" lon="5.61286">
        <ele>296.2</ele>
        <time>2013-04-10T09:31:11Z</time>
      </trkpt>
      <trkpt lat="43.44958" lon="5.61274">
        <ele>295.2</ele>
        <time>2013-04-10T09:31:20Z</time>
      </trkpt>
      <trkpt lat="43.44965" lon="5.61267">
        <ele>295.1</ele>
        <time>2013-04-10T09:31:29Z</time>
      </trkpt>
      <trkpt lat="43.44971" lon="5.61259">
        <ele>296.5</ele>
        <time>2013-04-10T09:31:36Z</time>
      </trkpt>
      <trkpt lat="43.44977" lon="5.61252">
        <ele>297.2</ele>
        <time>2013-04-10T09:31:42Z</time>
      </trkpt>
      <trkpt lat="43.44982" lon="5.61242">
        <ele>297.7</ele>
        <time>2013-04-10T09:31:49Z</time>
      </trkpt>
      <trkpt lat="43.44982" lon="5.61231">
        <ele>297.8</ele>
        <time>2013-04-10T09:31:56Z</time>
      </trkpt>
      <trkpt lat="43.44982" lon="5.61229">
        <ele>298.2</ele>
        <time>2013-04-10T09:31:57Z</time>
      </trkpt>
      <trkpt lat="43.44983" lon="5.61209">
        <ele>296.8</ele>
        <time>2013-04-10T09:32:09Z</time>
      </trkpt>
      <trkpt lat="43.44982" lon="5.61198">
        <ele>296.2</ele>
        <time>2013-04-10T09:32:16Z</time>
      </trkpt>
      <trkpt lat="43.44982" lon="5.61186">
        <ele>294.5</ele>
        <time>2013-04-10T09:32:24Z</time>
      </trkpt>
      <trkpt lat="43.4498" lon="5.61174">
        <ele>294.6</ele>
        <time>2013-04-10T09:32:31Z</time>
      </trkpt>
      <trkpt lat="43.44982" lon="5.61163">
        <ele>293</ele>
        <time>2013-04-10T09:32:39Z</time>
      </trkpt>
      <trkpt lat="43.44981" lon="5.61151">
        <ele>291.8</ele>
        <time>2013-04-10T09:32:47Z</time>
      </trkpt>
      <trkpt lat="43.4498" lon="5.61139">
        <ele>289.2</ele>
        <time>2013-04-10T09:32:55Z</time>
      </trkpt>
      <trkpt lat="43.44978" lon="5.61128">
        <ele>288.5</ele>
        <time>2013-04-10T09:33:02Z</time>
      </trkpt>
      <trkpt lat="43.44978" lon="5.61127">
        <ele>288.6</ele>
        <time>2013-04-10T09:33:03Z</time>
      </trkpt>
      <trkpt lat="43.44974" lon="5.61107">
        <ele>291.5</ele>
        <time>2013-04-10T09:33:14Z</time>
      </trkpt>
      <trkpt lat="43.4497" lon="5.61097">
        <ele>294.2</ele>
        <time>2013-04-10T09:33:22Z</time>
      </trkpt>
      <trkpt lat="43.44964" lon="5.61089">
        <ele>294.7</ele>
        <time>2013-04-10T09:33:29Z</time>
      </trkpt>
      <trkpt lat="43.44957" lon="5.61082">
        <ele>294.7</ele>
        <time>2013-04-10T09:33:36Z</time>
      </trkpt>
      <trkpt lat="43.4495" lon="5.61075">
        <ele>294.7</ele>
        <time>2013-04-10T09:33:44Z</time>
      </trkpt>
      <trkpt lat="43.44946" lon="5.61065">
        <ele>294.2</ele>
        <time>2013-04-10T09:33:51Z</time>
      </trkpt>
      <trkpt lat="43.44943" lon="5.61053">
        <ele>293</ele>
        <time>2013-04-10T09:33:59Z</time>
      </trkpt>
      <trkpt lat="43.44942" lon="5.61042">
        <ele>291.6</ele>
        <time>2013-04-10T09:34:07Z</time>
      </trkpt>
      <trkpt lat="43.44942" lon="5.61041">
        <ele>291.6</ele>
        <time>2013-04-10T09:34:08Z</time>
      </trkpt>
      <trkpt lat="43.44939" lon="5.6102">
        <ele>288.7</ele>
        <time>2013-04-10T09:34:22Z</time>
      </trkpt>
      <trkpt lat="43.4494" lon="5.61009">
        <ele>286.6</ele>
        <time>2013-04-10T09:34:30Z</time>
      </trkpt>
      <trkpt lat="43.44941" lon="5.60998">
        <ele>285.1</ele>
        <time>2013-04-10T09:34:38Z</time>
      </trkpt>
      <trkpt lat="43.44941" lon="5.60987">
        <ele>284.2</ele>
        <time>2013-04-10T09:34:44Z</time>
      </trkpt>
      <trkpt lat="43.44942" lon="5.60975">
        <ele>283.8</ele>
        <time>2013-04-10T09:34:51Z</time>
      </trkpt>
      <trkpt lat="43.44944" lon="5.60963">
        <ele>286.3</ele>
        <time>2013-04-10T09:34:58Z</time>
      </trkpt>
      <trkpt lat="43.44946" lon="5.60952">
        <ele>286.6</ele>
        <time>2013-04-10T09:35:06Z</time>
      </trkpt>
      <trkpt lat="43.44948" lon="5.60942">
        <ele>285.1</ele>
        <time>2013-04-10T09:35:13Z</time>
      </trkpt>
      <trkpt lat="43.44948" lon="5.6094">
        <ele>284.7</ele>
        <time>2013-04-10T09:35:14Z</time>
      </trkpt>
      <trkpt lat="43.44952" lon="5.60919">
        <ele>282</ele>
        <time>2013-04-10T09:35:29Z</time>
      </trkpt>
      <trkpt lat="43.44953" lon="5.60907">
        <ele>279.8</ele>
        <time>2013-04-10T09:35:37Z</time>
      </trkpt>
      <trkpt lat="43.44952" lon="5.60895">
        <ele>276.5</ele>
        <time>2013-04-10T09:35:46Z</time>
      </trkpt>
      <trkpt lat="43.44947" lon="5.60886">
        <ele>276.8</ele>
        <time>2013-04-10T09:35:54Z</time>
      </trkpt>
      <trkpt lat="43.44944" lon="5.60874">
        <ele>277.2</ele>
        <time>2013-04-10T09:36:02Z</time>
      </trkpt>
      <trkpt lat="43.44942" lon="5.60863">
        <ele>277.7</ele>
        <time>2013-04-10T09:36:09Z</time>
      </trkpt>
      <trkpt lat="43.4494" lon="5.60853">
        <ele>278.1</ele>
        <time>2013-04-10T09:36:16Z</time>
      </trkpt>
      <trkpt lat="43.4494" lon="5.60851">
        <ele>278.1</ele>
        <time>2013-04-10T09:36:17Z</time>
      </trkpt>
      <trkpt lat="43.44937" lon="5.60831">
        <ele>278.1</ele>
        <time>2013-04-10T09:36:29Z</time>
      </trkpt>
      <trkpt lat="43.44935" lon="5.60821">
        <ele>280.1</ele>
        <time>2013-04-10T09:36:33Z</time>
      </trkpt>
      <trkpt lat="43.44934" lon="5.6081">
        <ele>279.7</ele>
        <time>2013-04-10T09:36:39Z</time>
      </trkpt>
      <trkpt lat="43.44932" lon="5.608">
        <ele>279.3</ele>
        <time>2013-04-10T09:36:45Z</time>
      </trkpt>
      <trkpt lat="43.44932" lon="5.60788">
        <ele>278.3</ele>
        <time>2013-04-10T09:36:54Z</time>
      </trkpt>
      <trkpt lat="43.44933" lon="5.60776">
        <ele>278</ele>
        <time>2013-04-10T09:37:04Z</time>
      </trkpt>
      <trkpt lat="43.44933" lon="5.60764">
        <ele>278.8</ele>
        <time>2013-04-10T09:37:13Z</time>
      </trkpt>
      <trkpt lat="43.4493" lon="5.60753">
        <ele>279.2</ele>
        <time>2013-04-10T09:37:20Z</time>
      </trkpt>
      <trkpt lat="43.44929" lon="5.6075">
        <ele>279.2</ele>
        <time>2013-04-10T09:37:21Z</time>
      </trkpt>
      <trkpt lat="43.44927" lon="5.60729">
        <ele>278.1</ele>
        <time>2013-04-10T09:37:36Z</time>
      </trkpt>
      <trkpt lat="43.44926" lon="5.60717">
        <ele>273.8</ele>
        <time>2013-04-10T09:37:45Z</time>
      </trkpt>
      <trkpt lat="43.44924" lon="5.60704">
        <ele>272.8</ele>
        <time>2013-04-10T09:37:52Z</time>
      </trkpt>
      <trkpt lat="43.44922" lon="5.60693">
        <ele>273</ele>
        <time>2013-04-10T09:37:59Z</time>
      </trkpt>
      <trkpt lat="43.44921" lon="5.60681">
        <ele>272.2</ele>
        <time>2013-04-10T09:38:07Z</time>
      </trkpt>
      <trkpt lat="43.44922" lon="5.6067">
        <ele>270.5</ele>
        <time>2013-04-10T09:38:16Z</time>
      </trkpt>
      <trkpt lat="43.4492" lon="5.60658">
        <ele>271.1</ele>
        <time>2013-04-10T09:38:26Z</time>
      </trkpt>
      <trkpt lat="43.4492" lon="5.60657">
        <ele>271.2</ele>
        <time>2013-04-10T09:38:27Z</time>
      </trkpt>
      <trkpt lat="43.44912" lon="5.60639">
        <ele>272.2</ele>
        <time>2013-04-10T09:38:42Z</time>
      </trkpt>
      <trkpt lat="43.44907" lon="5.6063">
        <ele>277.2</ele>
        <time>2013-04-10T09:38:50Z</time>
      </trkpt>
      <trkpt lat="43.44905" lon="5.60618">
        <ele>278.2</ele>
        <time>2013-04-10T09:39:01Z</time>
      </trkpt>
      <trkpt lat="43.44902" lon="5.60606">
        <ele>275.8</ele>
        <time>2013-04-10T09:39:11Z</time>
      </trkpt>
      <trkpt lat="43.44902" lon="5.60595">
        <ele>273.8</ele>
        <time>2013-04-10T09:39:20Z</time>
      </trkpt>
      <trkpt lat="43.449" lon="5.60584">
        <ele>279</ele>
        <time>2013-04-10T09:39:40Z</time>
      </trkpt>
      <trkpt lat="43.44899" lon="5.60583">
        <ele>278.5</ele>
        <time>2013-04-10T09:39:41Z</time>
      </trkpt>
      <trkpt lat="43.44886" lon="5.60569">
        <ele>272.1</ele>
        <time>2013-04-10T09:40:00Z</time>
      </trkpt>
      <trkpt lat="43.4488" lon="5.60561">
        <ele>271.2</ele>
        <time>2013-04-10T09:40:07Z</time>
      </trkpt>
      <trkpt lat="43.44873" lon="5.60554">
        <ele>269.7</ele>
        <time>2013-04-10T09:40:16Z</time>
      </trkpt>
      <trkpt lat="43.44867" lon="5.60546">
        <ele>269.8</ele>
        <time>2013-04-10T09:40:24Z</time>
      </trkpt>
      <trkpt lat="43.44861" lon="5.60538">
        <ele>270.6</ele>
        <time>2013-04-10T09:40:31Z</time>
      </trkpt>
      <trkpt lat="43.44855" lon="5.60531">
        <ele>270.7</ele>
        <time>2013-04-10T09:40:40Z</time>
      </trkpt>
      <trkpt lat="43.44849" lon="5.60522">
        <ele>272.2</ele>
        <time>2013-04-10T09:40:47Z</time>
      </trkpt>
      <trkpt lat="43.44849" lon="5.6052">
        <ele>272.2</ele>
        <time>2013-04-10T09:40:48Z</time>
      </trkpt>
      <trkpt lat="43.44846" lon="5.60501">
        <ele>269.1</ele>
        <time>2013-04-10T09:41:00Z</time>
      </trkpt>
      <trkpt lat="43.44846" lon="5.60489">
        <ele>269.1</ele>
        <time>2013-04-10T09:41:08Z</time>
      </trkpt>
      <trkpt lat="43.44849" lon="5.60479">
        <ele>270.7</ele>
        <time>2013-04-10T09:41:16Z</time>
      </trkpt>
      <trkpt lat="43.44852" lon="5.60467">
        <ele>272.1</ele>
        <time>2013-04-10T09:41:25Z</time>
      </trkpt>
      <trkpt lat="43.44854" lon="5.60455">
        <ele>272.7</ele>
        <time>2013-04-10T09:41:34Z</time>
      </trkpt>
      <trkpt lat="43.44852" lon="5.60445">
        <ele>274.2</ele>
        <time>2013-04-10T09:41:39Z</time>
      </trkpt>
      <trkpt lat="43.44851" lon="5.60433">
        <ele>271.2</ele>
        <time>2013-04-10T09:41:47Z</time>
      </trkpt>
      <trkpt lat="43.44845" lon="5.60426">
        <ele>272.8</ele>
        <time>2013-04-10T09:41:56Z</time>
      </trkpt>
      <trkpt lat="43.44844" lon="5.60424">
        <ele>273.2</ele>
        <time>2013-04-10T09:41:57Z</time>
      </trkpt>
      <trkpt lat="43.4483" lon="5.60415">
        <ele>272.7</ele>
        <time>2013-04-10T09:42:26Z</time>
      </trkpt>
      <trkpt lat="43.44822" lon="5.60415">
        <ele>272.7</ele>
        <time>2013-04-10T09:42:35Z</time>
      </trkpt>
      <trkpt lat="43.44813" lon="5.60417">
        <ele>275.1</ele>
        <time>2013-04-10T09:42:44Z</time>
      </trkpt>
      <trkpt lat="43.44804" lon="5.6042">
        <ele>276.8</ele>
        <time>2013-04-10T09:42:53Z</time>
      </trkpt>
      <trkpt lat="43.44796" lon="5.60422">
        <ele>277.2</ele>
        <time>2013-04-10T09:43:00Z</time>
      </trkpt>
      <trkpt lat="43.44795" lon="5.60422">
        <ele>277.2</ele>
        <time>2013-04-10T09:43:01Z</time>
      </trkpt>
      <trkpt lat="43.44779" lon="5.60422">
        <ele>279.1</ele>
        <time>2013-04-10T09:43:16Z</time>
      </trkpt>
      <trkpt lat="43.44771" lon="5.60421">
        <ele>278.8</ele>
        <time>2013-04-10T09:43:23Z</time>
      </trkpt>
      <trkpt lat="43.44763" lon="5.6042">
        <ele>276.5</ele>
        <time>2013-04-10T09:43:30Z</time>
      </trkpt>
      <trkpt lat="43.44755" lon="5.6042">
        <ele>281</ele>
        <time>2013-04-10T09:43:36Z</time>
      </trkpt>
      <trkpt lat="43.44747" lon="5.60419">
        <ele>282.2</ele>
        <time>2013-04-10T09:43:44Z</time>
      </trkpt>
      <trkpt lat="43.44739" lon="5.60415">
        <ele>281.6</ele>
        <time>2013-04-10T09:43:51Z</time>
      </trkpt>
      <trkpt lat="43.44732" lon="5.60412">
        <ele>281.7</ele>
        <time>2013-04-10T09:43:58Z</time>
      </trkpt>
      <trkpt lat="43.44724" lon="5.60405">
        <ele>284.5</ele>
        <time>2013-04-10T09:44:05Z</time>
      </trkpt>
      <trkpt lat="43.44723" lon="5.60405">
        <ele>283.7</ele>
        <time>2013-04-10T09:44:06Z</time>
      </trkpt>
      <trkpt lat="43.4471" lon="5.60394">
        <ele>284.2</ele>
        <time>2013-04-10T09:44:19Z</time>
      </trkpt>
      <trkpt lat="43.44705" lon="5.60385">
        <ele>282.7</ele>
        <time>2013-04-10T09:44:26Z</time>
      </trkpt>
      <trkpt lat="43.447" lon="5.60376">
        <ele>286.2</ele>
        <time>2013-04-10T09:44:34Z</time>
      </trkpt>
      <trkpt lat="43.44696" lon="5.60366">
        <ele>282.2</ele>
        <time>2013-04-10T09:44:42Z</time>
      </trkpt>
      <trkpt lat="43.44691" lon="5.60357">
        <ele>278.2</ele>
        <time>2013-04-10T09:44:49Z</time>
      </trkpt>
      <trkpt lat="43.44687" lon="5.60348">
        <ele>276.8</ele>
        <time>2013-04-10T09:44:57Z</time>
      </trkpt>
      <trkpt lat="43.44682" lon="5.60338">
        <ele>275.8</ele>
        <time>2013-04-10T09:45:04Z</time>
      </trkpt>
      <trkpt lat="43.44676" lon="5.6033">
        <ele>276.5</ele>
        <time>2013-04-10T09:45:10Z</time>
      </trkpt>
      <trkpt lat="43.44676" lon="5.60329">
        <ele>276.5</ele>
        <time>2013-04-10T09:45:11Z</time>
      </trkpt>
      <trkpt lat="43.44666" lon="5.60311">
        <ele>281.1</ele>
        <time>2013-04-10T09:45:27Z</time>
      </trkpt>
      <trkpt lat="43.44661" lon="5.60301">
        <ele>284.8</ele>
        <time>2013-04-10T09:45:34Z</time>
      </trkpt>
      <trkpt lat="43.44656" lon="5.60292">
        <ele>285.8</ele>
        <time>2013-04-10T09:45:42Z</time>
      </trkpt>
      <trkpt lat="43.44651" lon="5.60283">
        <ele>286.7</ele>
        <time>2013-04-10T09:45:49Z</time>
      </trkpt>
      <trkpt lat="43.44646" lon="5.60275">
        <ele>286.7</ele>
        <time>2013-04-10T09:45:56Z</time>
      </trkpt>
      <trkpt lat="43.44642" lon="5.60266">
        <ele>287</ele>
        <time>2013-04-10T09:46:03Z</time>
      </trkpt>
      <trkpt lat="43.44637" lon="5.60257">
        <ele>290.7</ele>
        <time>2013-04-10T09:46:09Z</time>
      </trkpt>
      <trkpt lat="43.44633" lon="5.60248">
        <ele>293.8</ele>
        <time>2013-04-10T09:46:16Z</time>
      </trkpt>
      <trkpt lat="43.44633" lon="5.60246">
        <ele>294.2</ele>
        <time>2013-04-10T09:46:17Z</time>
      </trkpt>
      <trkpt lat="43.44625" lon="5.60228">
        <ele>294.1</ele>
        <time>2013-04-10T09:46:30Z</time>
      </trkpt>
      <trkpt lat="43.44622" lon="5.60217">
        <ele>291.3</ele>
        <time>2013-04-10T09:46:37Z</time>
      </trkpt>
      <trkpt lat="43.44618" lon="5.60206">
        <ele>293.2</ele>
        <time>2013-04-10T09:46:45Z</time>
      </trkpt>
      <trkpt lat="43.44616" lon="5.60195">
        <ele>292.5</ele>
        <time>2013-04-10T09:46:57Z</time>
      </trkpt>
      <trkpt lat="43.44613" lon="5.60185">
        <ele>292.1</ele>
        <time>2013-04-10T09:47:07Z</time>
      </trkpt>
      <trkpt lat="43.4461" lon="5.60175">
        <ele>291.1</ele>
        <time>2013-04-10T09:47:14Z</time>
      </trkpt>
      <trkpt lat="43.44607" lon="5.60164">
        <ele>292.7</ele>
        <time>2013-04-10T09:47:21Z</time>
      </trkpt>
      <trkpt lat="43.44606" lon="5.60163">
        <ele>292.5</ele>
        <time>2013-04-10T09:47:22Z</time>
      </trkpt>
      <trkpt lat="43.44602" lon="5.60142">
        <ele>296</ele>
        <time>2013-04-10T09:47:35Z</time>
      </trkpt>
      <trkpt lat="43.44599" lon="5.60133">
        <ele>296.8</ele>
        <time>2013-04-10T09:47:40Z</time>
      </trkpt>
      <trkpt lat="43.44594" lon="5.60122">
        <ele>298.1</ele>
        <time>2013-04-10T09:47:46Z</time>
      </trkpt>
      <trkpt lat="43.4459" lon="5.60112">
        <ele>301.2</ele>
        <time>2013-04-10T09:47:53Z</time>
      </trkpt>
      <trkpt lat="43.44583" lon="5.60105">
        <ele>300.1</ele>
        <time>2013-04-10T09:48:01Z</time>
      </trkpt>
      <trkpt lat="43.44575" lon="5.60102">
        <ele>297.7</ele>
        <time>2013-04-10T09:48:09Z</time>
      </trkpt>
      <trkpt lat="43.44567" lon="5.60102">
        <ele>299</ele>
        <time>2013-04-10T09:48:17Z</time>
      </trkpt>
      <trkpt lat="43.44559" lon="5.60103">
        <ele>299.6</ele>
        <time>2013-04-10T09:48:25Z</time>
      </trkpt>
      <trkpt lat="43.44557" lon="5.60103">
        <ele>299.3</ele>
        <time>2013-04-10T09:48:26Z</time>
      </trkpt>
      <trkpt lat="43.44542" lon="5.60104">
        <ele>300</ele>
        <time>2013-04-10T09:48:39Z</time>
      </trkpt>
      <trkpt lat="43.44533" lon="5.60104">
        <ele>301.6</ele>
        <time>2013-04-10T09:48:46Z</time>
      </trkpt>
      <trkpt lat="43.44525" lon="5.60104">
        <ele>301.8</ele>
        <time>2013-04-10T09:48:53Z</time>
      </trkpt>
      <trkpt lat="43.44517" lon="5.60105">
        <ele>303.6</ele>
        <time>2013-04-10T09:49:00Z</time>
      </trkpt>
      <trkpt lat="43.44508" lon="5.60106">
        <ele>301.6</ele>
        <time>2013-04-10T09:49:07Z</time>
      </trkpt>
      <trkpt lat="43.44499" lon="5.60107">
        <ele>300.2</ele>
        <time>2013-04-10T09:49:14Z</time>
      </trkpt>
      <trkpt lat="43.44491" lon="5.60108">
        <ele>300.3</ele>
        <time>2013-04-10T09:49:21Z</time>
      </trkpt>
      <trkpt lat="43.44483" lon="5.60106">
        <ele>300.1</ele>
        <time>2013-04-10T09:49:27Z</time>
      </trkpt>
      <trkpt lat="43.44482" lon="5.60106">
        <ele>300</ele>
        <time>2013-04-10T09:49:28Z</time>
      </trkpt>
      <trkpt lat="43.44467" lon="5.60105">
        <ele>297.8</ele>
        <time>2013-04-10T09:49:41Z</time>
      </trkpt>
      <trkpt lat="43.44458" lon="5.60105">
        <ele>296.8</ele>
        <time>2013-04-10T09:49:47Z</time>
      </trkpt>
      <trkpt lat="43.4445" lon="5.60105">
        <ele>299.3</ele>
        <time>2013-04-10T09:49:55Z</time>
      </trkpt>
      <trkpt lat="43.44442" lon="5.60106">
        <ele>301</ele>
        <time>2013-04-10T09:50:02Z</time>
      </trkpt>
      <trkpt lat="43.44433" lon="5.60104">
        <ele>301.7</ele>
        <time>2013-04-10T09:50:10Z</time>
      </trkpt>
      <trkpt lat="43.44425" lon="5.60103">
        <ele>293.3</ele>
        <time>2013-04-10T09:50:16Z</time>
      </trkpt>
      <trkpt lat="43.44417" lon="5.60102">
        <ele>291.7</ele>
        <time>2013-04-10T09:50:23Z</time>
      </trkpt>
      <trkpt lat="43.44409" lon="5.60102">
        <ele>294</ele>
        <time>2013-04-10T09:50:30Z</time>
      </trkpt>
      <trkpt lat="43.44408" lon="5.60102">
        <ele>294.2</ele>
        <time>2013-04-10T09:50:31Z</time>
      </trkpt>
      <trkpt lat="43.44392" lon="5.60104">
        <ele>297.1</ele>
        <time>2013-04-10T09:50:45Z</time>
      </trkpt>
      <trkpt lat="43.44384" lon="5.60106">
        <ele>298.2</ele>
        <time>2013-04-10T09:50:52Z</time>
      </trkpt>
      <trkpt lat="43.44375" lon="5.60108">
        <ele>299.6</ele>
        <time>2013-04-10T09:51:00Z</time>
      </trkpt>
      <trkpt lat="43.44367" lon="5.60111">
        <ele>301.7</ele>
        <time>2013-04-10T09:51:08Z</time>
      </trkpt>
      <trkpt lat="43.44358" lon="5.60115">
        <ele>301.8</ele>
        <time>2013-04-10T09:51:18Z</time>
      </trkpt>
      <trkpt lat="43.4435" lon="5.60119">
        <ele>300</ele>
        <time>2013-04-10T09:51:27Z</time>
      </trkpt>
      <trkpt lat="43.44342" lon="5.60123">
        <ele>301.1</ele>
        <time>2013-04-10T09:51:35Z</time>
      </trkpt>
      <trkpt lat="43.44341" lon="5.60123">
        <ele>301.6</ele>
        <time>2013-04-10T09:51:36Z</time>
      </trkpt>
      <trkpt lat="43.44327" lon="5.60131">
        <ele>301.3</ele>
        <time>2013-04-10T09:51:52Z</time>
      </trkpt>
      <trkpt lat="43.44319" lon="5.60133">
        <ele>315.5</ele>
        <time>2013-04-10T09:52:00Z</time>
      </trkpt>
      <trkpt lat="43.4431" lon="5.60136">
        <ele>315.7</ele>
        <time>2013-04-10T09:52:08Z</time>
      </trkpt>
      <trkpt lat="43.44302" lon="5.60137">
        <ele>316.7</ele>
        <time>2013-04-10T09:52:15Z</time>
      </trkpt>
      <trkpt lat="43.44293" lon="5.60138">
        <ele>311.2</ele>
        <time>2013-04-10T09:52:22Z</time>
      </trkpt>
      <trkpt lat="43.44285" lon="5.60136">
        <ele>307.7</ele>
        <time>2013-04-10T09:52:31Z</time>
      </trkpt>
      <trkpt lat="43.44277" lon="5.60139">
        <ele>306.7</ele>
        <time>2013-04-10T09:52:40Z</time>
      </trkpt>
      <trkpt lat="43.44276" lon="5.6014">
        <ele>307.2</ele>
        <time>2013-04-10T09:52:41Z</time>
      </trkpt>
      <trkpt lat="43.4426" lon="5.6014">
        <ele>308.5</ele>
        <time>2013-04-10T09:52:55Z</time>
      </trkpt>
      <trkpt lat="43.44252" lon="5.60138">
        <ele>309.2</ele>
        <time>2013-04-10T09:53:03Z</time>
      </trkpt>
      <trkpt lat="43.44243" lon="5.6014">
        <ele>303.7</ele>
        <time>2013-04-10T09:53:11Z</time>
      </trkpt>
      <trkpt lat="43.44235" lon="5.6014">
        <ele>306.8</ele>
        <time>2013-04-10T09:53:19Z</time>
      </trkpt>
      <trkpt lat="43.44227" lon="5.60142">
        <ele>313.5</ele>
        <time>2013-04-10T09:53:27Z</time>
      </trkpt>
      <trkpt lat="43.44219" lon="5.60147">
        <ele>318</ele>
        <time>2013-04-10T09:53:35Z</time>
      </trkpt>
      <trkpt lat="43.44212" lon="5.60151">
        <ele>316.6</ele>
        <time>2013-04-10T09:53:41Z</time>
      </trkpt>
      <trkpt lat="43.44211" lon="5.60152">
        <ele>316.5</ele>
        <time>2013-04-10T09:53:42Z</time>
      </trkpt>
      <trkpt lat="43.44195" lon="5.60153">
        <ele>317.5</ele>
        <time>2013-04-10T09:53:58Z</time>
      </trkpt>
      <trkpt lat="43.44186" lon="5.60156">
        <ele>319.2</ele>
        <time>2013-04-10T09:54:07Z</time>
      </trkpt>
      <trkpt lat="43.44178" lon="5.60156">
        <ele>320.2</ele>
        <time>2013-04-10T09:54:14Z</time>
      </trkpt>
      <trkpt lat="43.4417" lon="5.60156">
        <ele>320.2</ele>
        <time>2013-04-10T09:54:21Z</time>
      </trkpt>
      <trkpt lat="43.44162" lon="5.60155">
        <ele>319.2</ele>
        <time>2013-04-10T09:54:28Z</time>
      </trkpt>
      <trkpt lat="43.44153" lon="5.60153">
        <ele>321.1</ele>
        <time>2013-04-10T09:54:35Z</time>
      </trkpt>
      <trkpt lat="43.44145" lon="5.60151">
        <ele>321.5</ele>
        <time>2013-04-10T09:54:43Z</time>
      </trkpt>
      <trkpt lat="43.44144" lon="5.60151">
        <ele>321.6</ele>
        <time>2013-04-10T09:54:44Z</time>
      </trkpt>
      <trkpt lat="43.44129" lon="5.60148">
        <ele>320.6</ele>
        <time>2013-04-10T09:54:57Z</time>
      </trkpt>
      <trkpt lat="43.44121" lon="5.60146">
        <ele>321.1</ele>
        <time>2013-04-10T09:55:05Z</time>
      </trkpt>
      <trkpt lat="43.44112" lon="5.60144">
        <ele>323.2</ele>
        <time>2013-04-10T09:55:15Z</time>
      </trkpt>
      <trkpt lat="43.44104" lon="5.60143">
        <ele>325.7</ele>
        <time>2013-04-10T09:55:24Z</time>
      </trkpt>
      <trkpt lat="43.44095" lon="5.60144">
        <ele>324.6</ele>
        <time>2013-04-10T09:55:32Z</time>
      </trkpt>
      <trkpt lat="43.44087" lon="5.60146">
        <ele>323.6</ele>
        <time>2013-04-10T09:55:39Z</time>
      </trkpt>
      <trkpt lat="43.44079" lon="5.60145">
        <ele>324.1</ele>
        <time>2013-04-10T09:55:46Z</time>
      </trkpt>
      <trkpt lat="43.44078" lon="5.60145">
        <ele>324.2</ele>
        <time>2013-04-10T09:55:47Z</time>
      </trkpt>
      <trkpt lat="43.44062" lon="5.60143">
        <ele>329.8</ele>
        <time>2013-04-10T09:56:00Z</time>
      </trkpt>
      <trkpt lat="43.44054" lon="5.60142">
        <ele>329.5</ele>
        <time>2013-04-10T09:56:07Z</time>
      </trkpt>
      <trkpt lat="43.44045" lon="5.60141">
        <ele>333.8</ele>
        <time>2013-04-10T09:56:15Z</time>
      </trkpt>
      <trkpt lat="43.44037" lon="5.60139">
        <ele>330.3</ele>
        <time>2013-04-10T09:56:22Z</time>
      </trkpt>
      <trkpt lat="43.44029" lon="5.60136">
        <ele>324</ele>
        <time>2013-04-10T09:56:28Z</time>
      </trkpt>
      <trkpt lat="43.4402" lon="5.60134">
        <ele>323.6</ele>
        <time>2013-04-10T09:56:36Z</time>
      </trkpt>
      <trkpt lat="43.44012" lon="5.60134">
        <ele>324.1</ele>
        <time>2013-04-10T09:56:43Z</time>
      </trkpt>
      <trkpt lat="43.44003" lon="5.60132">
        <ele>324.2</ele>
        <time>2013-04-10T09:56:51Z</time>
      </trkpt>
      <trkpt lat="43.44002" lon="5.60132">
        <ele>323.6</ele>
        <time>2013-04-10T09:56:52Z</time>
      </trkpt>
      <trkpt lat="43.43986" lon="5.60131">
        <ele>321.8</ele>
        <time>2013-04-10T09:57:06Z</time>
      </trkpt>
      <trkpt lat="43.43978" lon="5.60132">
        <ele>324</ele>
        <time>2013-04-10T09:57:13Z</time>
      </trkpt>
      <trkpt lat="43.43969" lon="5.6013">
        <ele>325.3</ele>
        <time>2013-04-10T09:57:21Z</time>
      </trkpt>
      <trkpt lat="43.43961" lon="5.60128">
        <ele>324.1</ele>
        <time>2013-04-10T09:57:28Z</time>
      </trkpt>
      <trkpt lat="43.43953" lon="5.60124">
        <ele>326</ele>
        <time>2013-04-10T09:57:35Z</time>
      </trkpt>
      <trkpt lat="43.43945" lon="5.60121">
        <ele>323.6</ele>
        <time>2013-04-10T09:57:42Z</time>
      </trkpt>
      <trkpt lat="43.43937" lon="5.60119">
        <ele>325.8</ele>
        <time>2013-04-10T09:57:49Z</time>
      </trkpt>
      <trkpt lat="43.43928" lon="5.60118">
        <ele>327.5</ele>
        <time>2013-04-10T09:57:56Z</time>
      </trkpt>
      <trkpt lat="43.43927" lon="5.60118">
        <ele>328.2</ele>
        <time>2013-04-10T09:57:57Z</time>
      </trkpt>
      <trkpt lat="43.43912" lon="5.60118">
        <ele>334.8</ele>
        <time>2013-04-10T09:58:08Z</time>
      </trkpt>
      <trkpt lat="43.43904" lon="5.60118">
        <ele>337</ele>
        <time>2013-04-10T09:58:15Z</time>
      </trkpt>
      <trkpt lat="43.43895" lon="5.60121">
        <ele>338.5</ele>
        <time>2013-04-10T09:58:22Z</time>
      </trkpt>
      <trkpt lat="43.43886" lon="5.60122">
        <ele>339.3</ele>
        <time>2013-04-10T09:58:30Z</time>
      </trkpt>
      <trkpt lat="43.43877" lon="5.60124">
        <ele>342.2</ele>
        <time>2013-04-10T09:58:37Z</time>
      </trkpt>
      <trkpt lat="43.43868" lon="5.60124">
        <ele>344.2</ele>
        <time>2013-04-10T09:58:45Z</time>
      </trkpt>
      <trkpt lat="43.4386" lon="5.60125">
        <ele>342.2</ele>
        <time>2013-04-10T09:58:53Z</time>
      </trkpt>
      <trkpt lat="43.43851" lon="5.60124">
        <ele>342.2</ele>
        <time>2013-04-10T09:59:00Z</time>
      </trkpt>
      <trkpt lat="43.43849" lon="5.60125">
        <ele>341.3</ele>
        <time>2013-04-10T09:59:01Z</time>
      </trkpt>
      <trkpt lat="43.43833" lon="5.60124">
        <ele>340</ele>
        <time>2013-04-10T09:59:15Z</time>
      </trkpt>
      <trkpt lat="43.43826" lon="5.60121">
        <ele>339.2</ele>
        <time>2013-04-10T09:59:23Z</time>
      </trkpt>
      <trkpt lat="43.43817" lon="5.60121">
        <ele>339.2</ele>
        <time>2013-04-10T09:59:31Z</time>
      </trkpt>
      <trkpt lat="43.43809" lon="5.60121">
        <ele>339.7</ele>
        <time>2013-04-10T09:59:38Z</time>
      </trkpt>
      <trkpt lat="43.43801" lon="5.60123">
        <ele>340.7</ele>
        <time>2013-04-10T09:59:45Z</time>
      </trkpt>
      <trkpt lat="43.43793" lon="5.60126">
        <ele>339.6</ele>
        <time>2013-04-10T09:59:53Z</time>
      </trkpt>
      <trkpt lat="43.43785" lon="5.6013">
        <ele>343.6</ele>
        <time>2013-04-10T10:00:00Z</time>
      </trkpt>
      <trkpt lat="43.43777" lon="5.60132">
        <ele>343.2</ele>
        <time>2013-04-10T10:00:07Z</time>
      </trkpt>
      <trkpt lat="43.43776" lon="5.60132">
        <ele>343.2</ele>
        <time>2013-04-10T10:00:08Z</time>
      </trkpt>
      <trkpt lat="43.43759" lon="5.60136">
        <ele>339.7</ele>
        <time>2013-04-10T10:00:23Z</time>
      </trkpt>
      <trkpt lat="43.4375" lon="5.60138">
        <ele>339.6</ele>
        <time>2013-04-10T10:00:32Z</time>
      </trkpt>
      <trkpt lat="43.43743" lon="5.6014">
        <ele>338.7</ele>
        <time>2013-04-10T10:00:39Z</time>
      </trkpt>
      <trkpt lat="43.43734" lon="5.60139">
        <ele>336.1</ele>
        <time>2013-04-10T10:00:53Z</time>
      </trkpt>
      <trkpt lat="43.43725" lon="5.60141">
        <ele>345.3</ele>
        <time>2013-04-10T10:01:09Z</time>
      </trkpt>
      <trkpt lat="43.43725" lon="5.60142">
        <ele>346</ele>
        <time>2013-04-10T10:01:10Z</time>
      </trkpt>
      <trkpt lat="43.43718" lon="5.60163">
        <ele>353.7</ele>
        <time>2013-04-10T10:01:39Z</time>
      </trkpt>
      <trkpt lat="43.43717" lon="5.60175">
        <ele>356.8</ele>
        <time>2013-04-10T10:01:49Z</time>
      </trkpt>
      <trkpt lat="43.43721" lon="5.60185">
        <ele>353.5</ele>
        <time>2013-04-10T10:06:21Z</time>
      </trkpt>
      <trkpt lat="43.43722" lon="5.60186">
        <ele>354.7</ele>
        <time>2013-04-10T10:06:22Z</time>
      </trkpt>
    </trkseg>
  </trk>
</gpx>